<?xml version="1.0" encoding="UTF-8" standalone="no" ?>
<gpx xmlns="http://www.topografix.com/GPX/1/1" xmlns:xsi="http://www.w3.org/2001/XMLSchema-instance" xsi:schemaLocation="http://www.topografix.com/GPX/1/1 http://www.topografix.com/GPX/1/1/gpx.xsd" version="1.1" creator="VisuGPX - https://www.visugpx.com">
  <metadata>
    <name>mosson_pignan_cournonterral</name>
  </metadata>
  <trk>
    <name><![CDATA[mosson_pignan_cournonterral_1]]></name>
    <extensions>
      <line xmlns="http://www.topografix.com/GPX/gpx_style/0/2">
        <color>0000FF</color>
        <width>4</width>
      </line>
    </extensions>
    <trkseg>
      <trkpt lat="43.61467" lon="3.82567">
        <ele>55</ele>
        <time>2022-02-20T12:12:47Z</time>
      </trkpt>
      <trkpt lat="43.61531" lon="3.81848">
        <ele>34.8</ele>
      </trkpt>
      <trkpt lat="43.61456" lon="3.81593">
        <ele>36.2</ele>
      </trkpt>
      <trkpt lat="43.61452" lon="3.817">
        <ele>31.2</ele>
      </trkpt>
      <trkpt lat="43.61363" lon="3.81736">
        <ele>32.9</ele>
      </trkpt>
      <trkpt lat="43.61254" lon="3.81758">
        <ele>33.2</ele>
      </trkpt>
      <trkpt lat="43.61096" lon="3.81876">
        <ele>29.7</ele>
      </trkpt>
      <trkpt lat="43.60888" lon="3.81947">
        <ele>29.8</ele>
      </trkpt>
      <trkpt lat="43.60777" lon="3.81934">
        <ele>28.8</ele>
      </trkpt>
      <trkpt lat="43.60686" lon="3.81803">
        <ele>31.5</ele>
      </trkpt>
      <trkpt lat="43.60638" lon="3.81856">
        <ele>30.3</ele>
      </trkpt>
      <trkpt lat="43.60638" lon="3.81949">
        <ele>28.4</ele>
      </trkpt>
      <trkpt lat="43.60428" lon="3.8185">
        <ele>26.8</ele>
      </trkpt>
      <trkpt lat="43.60311" lon="3.81743">
        <ele>25.6</ele>
      </trkpt>
      <trkpt lat="43.60273" lon="3.81622">
        <ele>26.8</ele>
        <time>2022-02-20T12:12:57Z</time>
      </trkpt>
      <trkpt lat="43.60274" lon="3.81577">
        <ele>28</ele>
        <time>2022-02-20T12:13:07Z</time>
      </trkpt>
      <trkpt lat="43.60291" lon="3.81538">
        <ele>28.6</ele>
        <time>2022-02-20T12:13:17Z</time>
      </trkpt>
      <trkpt lat="43.60276" lon="3.81518">
        <ele>29.7</ele>
        <time>2022-02-20T12:13:27Z</time>
      </trkpt>
      <trkpt lat="43.60249" lon="3.81502">
        <ele>30.8</ele>
        <time>2022-02-20T12:13:37Z</time>
      </trkpt>
      <trkpt lat="43.60214" lon="3.81486">
        <ele>30.5</ele>
        <time>2022-02-20T12:13:47Z</time>
      </trkpt>
      <trkpt lat="43.6017" lon="3.81502">
        <ele>29.8</ele>
        <time>2022-02-20T12:13:57Z</time>
      </trkpt>
      <trkpt lat="43.6012" lon="3.81505">
        <ele>29.6</ele>
        <time>2022-02-20T12:14:07Z</time>
      </trkpt>
      <trkpt lat="43.60067" lon="3.815">
        <ele>29</ele>
        <time>2022-02-20T12:14:17Z</time>
      </trkpt>
      <trkpt lat="43.60016" lon="3.81499">
        <ele>28.4</ele>
        <time>2022-02-20T12:14:27Z</time>
      </trkpt>
      <trkpt lat="43.60018" lon="3.81456">
        <ele>29</ele>
        <time>2022-02-20T12:14:37Z</time>
      </trkpt>
      <trkpt lat="43.60031" lon="3.81409">
        <ele>29.1</ele>
        <time>2022-02-20T12:14:47Z</time>
      </trkpt>
      <trkpt lat="43.60029" lon="3.81372">
        <ele>29.6</ele>
        <time>2022-02-20T12:14:57Z</time>
      </trkpt>
      <trkpt lat="43.60004" lon="3.81334">
        <ele>30.8</ele>
        <time>2022-02-20T12:15:07Z</time>
      </trkpt>
      <trkpt lat="43.5998" lon="3.813">
        <ele>32.5</ele>
        <time>2022-02-20T12:15:17Z</time>
      </trkpt>
      <trkpt lat="43.59961" lon="3.81275">
        <ele>34.2</ele>
        <time>2022-02-20T12:15:27Z</time>
      </trkpt>
      <trkpt lat="43.59941" lon="3.81255">
        <ele>35.5</ele>
        <time>2022-02-20T12:15:37Z</time>
      </trkpt>
      <trkpt lat="43.59921" lon="3.8124">
        <ele>37.5</ele>
        <time>2022-02-20T12:15:47Z</time>
      </trkpt>
      <trkpt lat="43.59901" lon="3.81224">
        <ele>38.6</ele>
        <time>2022-02-20T12:15:57Z</time>
      </trkpt>
      <trkpt lat="43.59882" lon="3.81207">
        <ele>40</ele>
        <time>2022-02-20T12:16:07Z</time>
      </trkpt>
      <trkpt lat="43.59866" lon="3.81189">
        <ele>41.7</ele>
        <time>2022-02-20T12:16:17Z</time>
      </trkpt>
      <trkpt lat="43.5985" lon="3.81167">
        <ele>42.8</ele>
        <time>2022-02-20T12:16:27Z</time>
      </trkpt>
      <trkpt lat="43.59837" lon="3.81142">
        <ele>43.7</ele>
        <time>2022-02-20T12:16:37Z</time>
      </trkpt>
      <trkpt lat="43.59827" lon="3.81115">
        <ele>43.8</ele>
        <time>2022-02-20T12:16:47Z</time>
      </trkpt>
      <trkpt lat="43.59815" lon="3.81088">
        <ele>45</ele>
        <time>2022-02-20T12:16:57Z</time>
      </trkpt>
      <trkpt lat="43.59801" lon="3.81059">
        <ele>45.6</ele>
        <time>2022-02-20T12:17:07Z</time>
      </trkpt>
      <trkpt lat="43.59788" lon="3.81028">
        <ele>46.9</ele>
        <time>2022-02-20T12:17:17Z</time>
      </trkpt>
      <trkpt lat="43.59774" lon="3.80999">
        <ele>48.2</ele>
        <time>2022-02-20T12:17:27Z</time>
      </trkpt>
      <trkpt lat="43.59762" lon="3.80973">
        <ele>49.5</ele>
        <time>2022-02-20T12:17:37Z</time>
      </trkpt>
      <trkpt lat="43.59748" lon="3.80944">
        <ele>50</ele>
        <time>2022-02-20T12:17:47Z</time>
      </trkpt>
      <trkpt lat="43.59739" lon="3.80908">
        <ele>50.4</ele>
        <time>2022-02-20T12:17:57Z</time>
      </trkpt>
      <trkpt lat="43.59731" lon="3.80867">
        <ele>50.9</ele>
        <time>2022-02-20T12:18:07Z</time>
      </trkpt>
      <trkpt lat="43.59722" lon="3.80818">
        <ele>51</ele>
        <time>2022-02-20T12:18:17Z</time>
      </trkpt>
      <trkpt lat="43.59709" lon="3.80768">
        <ele>51</ele>
        <time>2022-02-20T12:18:27Z</time>
      </trkpt>
      <trkpt lat="43.59702" lon="3.80724">
        <ele>51.9</ele>
        <time>2022-02-20T12:18:37Z</time>
      </trkpt>
      <trkpt lat="43.59698" lon="3.80684">
        <ele>52</ele>
        <time>2022-02-20T12:18:47Z</time>
      </trkpt>
      <trkpt lat="43.59692" lon="3.80643">
        <ele>52.9</ele>
        <time>2022-02-20T12:18:57Z</time>
      </trkpt>
      <trkpt lat="43.59685" lon="3.80596">
        <ele>53</ele>
        <time>2022-02-20T12:19:07Z</time>
      </trkpt>
      <trkpt lat="43.5968" lon="3.80552">
        <ele>53.6</ele>
        <time>2022-02-20T12:19:17Z</time>
      </trkpt>
      <trkpt lat="43.59668" lon="3.80514">
        <ele>54</ele>
        <time>2022-02-20T12:19:27Z</time>
      </trkpt>
      <trkpt lat="43.59654" lon="3.80477">
        <ele>54.4</ele>
        <time>2022-02-20T12:19:37Z</time>
      </trkpt>
      <trkpt lat="43.59643" lon="3.80437">
        <ele>54.9</ele>
        <time>2022-02-20T12:19:47Z</time>
      </trkpt>
      <trkpt lat="43.59632" lon="3.80393">
        <ele>55.4</ele>
        <time>2022-02-20T12:19:57Z</time>
      </trkpt>
      <trkpt lat="43.59609" lon="3.80356">
        <ele>54.9</ele>
        <time>2022-02-20T12:20:07Z</time>
      </trkpt>
      <trkpt lat="43.59583" lon="3.80318">
        <ele>55</ele>
        <time>2022-02-20T12:20:17Z</time>
      </trkpt>
      <trkpt lat="43.59556" lon="3.8028">
        <ele>55</ele>
        <time>2022-02-20T12:20:27Z</time>
      </trkpt>
      <trkpt lat="43.59533" lon="3.80241">
        <ele>55.5</ele>
        <time>2022-02-20T12:20:37Z</time>
      </trkpt>
      <trkpt lat="43.59513" lon="3.80201">
        <ele>55.5</ele>
        <time>2022-02-20T12:20:47Z</time>
      </trkpt>
      <trkpt lat="43.59499" lon="3.80155">
        <ele>56</ele>
        <time>2022-02-20T12:20:57Z</time>
      </trkpt>
      <trkpt lat="43.59465" lon="3.80138">
        <ele>54.7</ele>
        <time>2022-02-20T12:21:07Z</time>
      </trkpt>
      <trkpt lat="43.59422" lon="3.80121">
        <ele>53.2</ele>
        <time>2022-02-20T12:21:17Z</time>
      </trkpt>
      <trkpt lat="43.59369" lon="3.80099">
        <ele>51.3</ele>
        <time>2022-02-20T12:21:27Z</time>
      </trkpt>
      <trkpt lat="43.59315" lon="3.8007">
        <ele>49.4</ele>
        <time>2022-02-20T12:21:37Z</time>
      </trkpt>
      <trkpt lat="43.59268" lon="3.80093">
        <ele>48.6</ele>
        <time>2022-02-20T12:21:47Z</time>
      </trkpt>
      <trkpt lat="43.59235" lon="3.80073">
        <ele>47.1</ele>
        <time>2022-02-20T12:21:57Z</time>
      </trkpt>
      <trkpt lat="43.592" lon="3.80014">
        <ele>45.2</ele>
        <time>2022-02-20T12:22:07Z</time>
      </trkpt>
      <trkpt lat="43.59181" lon="3.79966">
        <ele>45</ele>
        <time>2022-02-20T12:22:17Z</time>
      </trkpt>
      <trkpt lat="43.59208" lon="3.79939">
        <ele>45.5</ele>
        <time>2022-02-20T12:22:27Z</time>
      </trkpt>
      <trkpt lat="43.59237" lon="3.7991">
        <ele>46</ele>
        <time>2022-02-20T12:22:37Z</time>
      </trkpt>
      <trkpt lat="43.59264" lon="3.79881">
        <ele>46.6</ele>
        <time>2022-02-20T12:22:47Z</time>
      </trkpt>
      <trkpt lat="43.5929" lon="3.79851">
        <ele>47.4</ele>
        <time>2022-02-20T12:22:57Z</time>
      </trkpt>
      <trkpt lat="43.59317" lon="3.79821">
        <ele>48.2</ele>
        <time>2022-02-20T12:23:07Z</time>
      </trkpt>
      <trkpt lat="43.59341" lon="3.7979">
        <ele>48.6</ele>
        <time>2022-02-20T12:23:17Z</time>
      </trkpt>
      <trkpt lat="43.59349" lon="3.79765">
        <ele>48.8</ele>
        <time>2022-02-20T12:23:27Z</time>
      </trkpt>
      <trkpt lat="43.5933" lon="3.79711">
        <ele>50.4</ele>
        <time>2022-02-20T12:23:37Z</time>
      </trkpt>
      <trkpt lat="43.59314" lon="3.79665">
        <ele>51.8</ele>
        <time>2022-02-20T12:23:47Z</time>
      </trkpt>
      <trkpt lat="43.59301" lon="3.79629">
        <ele>52.8</ele>
        <time>2022-02-20T12:23:57Z</time>
      </trkpt>
      <trkpt lat="43.59285" lon="3.7959">
        <ele>51.7</ele>
        <time>2022-02-20T12:24:07Z</time>
      </trkpt>
      <trkpt lat="43.5927" lon="3.79529">
        <ele>49.9</ele>
        <time>2022-02-20T12:24:17Z</time>
      </trkpt>
      <trkpt lat="43.59266" lon="3.79453">
        <ele>47</ele>
        <time>2022-02-20T12:24:27Z</time>
      </trkpt>
      <trkpt lat="43.59264" lon="3.79378">
        <ele>44.6</ele>
        <time>2022-02-20T12:24:37Z</time>
      </trkpt>
      <trkpt lat="43.59223" lon="3.79378">
        <ele>40.9</ele>
        <time>2022-02-20T12:24:47Z</time>
      </trkpt>
      <trkpt lat="43.59201" lon="3.79439">
        <ele>40</ele>
        <time>2022-02-20T12:24:57Z</time>
      </trkpt>
      <trkpt lat="43.59181" lon="3.79492">
        <ele>41.3</ele>
        <time>2022-02-20T12:25:07Z</time>
      </trkpt>
      <trkpt lat="43.59158" lon="3.7954">
        <ele>42.4</ele>
        <time>2022-02-20T12:25:17Z</time>
      </trkpt>
      <trkpt lat="43.59137" lon="3.79563">
        <ele>39.9</ele>
        <time>2022-02-20T12:25:27Z</time>
      </trkpt>
      <trkpt lat="43.591" lon="3.7952">
        <ele>37.4</ele>
        <time>2022-02-20T12:25:37Z</time>
      </trkpt>
      <trkpt lat="43.59081" lon="3.79493">
        <ele>36.6</ele>
        <time>2022-02-20T12:25:47Z</time>
      </trkpt>
      <trkpt lat="43.59097" lon="3.79441">
        <ele>35.5</ele>
        <time>2022-02-20T12:25:57Z</time>
      </trkpt>
      <trkpt lat="43.59109" lon="3.7938">
        <ele>34.9</ele>
        <time>2022-02-20T12:26:07Z</time>
      </trkpt>
      <trkpt lat="43.59115" lon="3.79324">
        <ele>34.4</ele>
        <time>2022-02-20T12:26:17Z</time>
      </trkpt>
      <trkpt lat="43.59134" lon="3.79284">
        <ele>35.6</ele>
        <time>2022-02-20T12:26:27Z</time>
      </trkpt>
      <trkpt lat="43.59152" lon="3.79241">
        <ele>37.2</ele>
        <time>2022-02-20T12:26:37Z</time>
      </trkpt>
      <trkpt lat="43.59162" lon="3.79204">
        <ele>39.5</ele>
        <time>2022-02-20T12:26:47Z</time>
      </trkpt>
      <trkpt lat="43.59162" lon="3.79176">
        <ele>41.6</ele>
        <time>2022-02-20T12:26:57Z</time>
      </trkpt>
      <trkpt lat="43.59163" lon="3.7915">
        <ele>42.7</ele>
        <time>2022-02-20T12:27:07Z</time>
      </trkpt>
      <trkpt lat="43.59167" lon="3.79123">
        <ele>43.6</ele>
        <time>2022-02-20T12:27:17Z</time>
      </trkpt>
      <trkpt lat="43.59172" lon="3.79092">
        <ele>43.9</ele>
        <time>2022-02-20T12:27:27Z</time>
      </trkpt>
      <trkpt lat="43.59179" lon="3.79058">
        <ele>44</ele>
        <time>2022-02-20T12:27:37Z</time>
      </trkpt>
      <trkpt lat="43.59185" lon="3.79013">
        <ele>43.1</ele>
        <time>2022-02-20T12:27:47Z</time>
      </trkpt>
      <trkpt lat="43.59161" lon="3.78963">
        <ele>41.8</ele>
        <time>2022-02-20T12:27:57Z</time>
      </trkpt>
      <trkpt lat="43.59139" lon="3.78923">
        <ele>41.8</ele>
        <time>2022-02-20T12:28:07Z</time>
      </trkpt>
      <trkpt lat="43.59123" lon="3.78873">
        <ele>41.9</ele>
        <time>2022-02-20T12:28:17Z</time>
      </trkpt>
      <trkpt lat="43.59104" lon="3.78844">
        <ele>43</ele>
        <time>2022-02-20T12:28:27Z</time>
      </trkpt>
      <trkpt lat="43.5909" lon="3.78807">
        <ele>45.2</ele>
        <time>2022-02-20T12:28:37Z</time>
      </trkpt>
      <trkpt lat="43.59082" lon="3.78774">
        <ele>47.1</ele>
        <time>2022-02-20T12:28:47Z</time>
      </trkpt>
      <trkpt lat="43.59069" lon="3.78744">
        <ele>48.9</ele>
        <time>2022-02-20T12:28:57Z</time>
      </trkpt>
      <trkpt lat="43.59065" lon="3.78713">
        <ele>51.5</ele>
        <time>2022-02-20T12:29:07Z</time>
      </trkpt>
      <trkpt lat="43.59076" lon="3.78676">
        <ele>51.8</ele>
        <time>2022-02-20T12:29:17Z</time>
      </trkpt>
      <trkpt lat="43.5909" lon="3.78634">
        <ele>52.1</ele>
        <time>2022-02-20T12:29:27Z</time>
      </trkpt>
      <trkpt lat="43.59095" lon="3.78603">
        <ele>55.4</ele>
        <time>2022-02-20T12:29:37Z</time>
      </trkpt>
      <trkpt lat="43.591" lon="3.78569">
        <ele>55.7</ele>
        <time>2022-02-20T12:29:47Z</time>
      </trkpt>
      <trkpt lat="43.59097" lon="3.7853">
        <ele>59.1</ele>
        <time>2022-02-20T12:29:57Z</time>
      </trkpt>
      <trkpt lat="43.59095" lon="3.78492">
        <ele>59.8</ele>
        <time>2022-02-20T12:30:07Z</time>
      </trkpt>
      <trkpt lat="43.59096" lon="3.78455">
        <ele>59.3</ele>
        <time>2022-02-20T12:30:17Z</time>
      </trkpt>
      <trkpt lat="43.59095" lon="3.78421">
        <ele>59.3</ele>
        <time>2022-02-20T12:30:27Z</time>
      </trkpt>
      <trkpt lat="43.59094" lon="3.78398">
        <ele>60.6</ele>
        <time>2022-02-20T12:30:37Z</time>
      </trkpt>
      <trkpt lat="43.59092" lon="3.78376">
        <ele>63</ele>
        <time>2022-02-20T12:30:47Z</time>
      </trkpt>
      <trkpt lat="43.5909" lon="3.78348">
        <ele>64.3</ele>
        <time>2022-02-20T12:30:57Z</time>
      </trkpt>
      <trkpt lat="43.59082" lon="3.78318">
        <ele>64.5</ele>
        <time>2022-02-20T12:31:07Z</time>
      </trkpt>
      <trkpt lat="43.59067" lon="3.78284">
        <ele>64.4</ele>
        <time>2022-02-20T12:31:17Z</time>
      </trkpt>
      <trkpt lat="43.59051" lon="3.78254">
        <ele>64.9</ele>
        <time>2022-02-20T12:31:27Z</time>
      </trkpt>
      <trkpt lat="43.59025" lon="3.78232">
        <ele>66.3</ele>
        <time>2022-02-20T12:31:37Z</time>
      </trkpt>
      <trkpt lat="43.59009" lon="3.78238">
        <ele>67.9</ele>
        <time>2022-02-20T12:31:47Z</time>
      </trkpt>
      <trkpt lat="43.59046" lon="3.78249">
        <ele>65.3</ele>
        <time>2022-02-20T12:32:47Z</time>
      </trkpt>
      <trkpt lat="43.59064" lon="3.78278">
        <ele>64.5</ele>
        <time>2022-02-20T12:33:07Z</time>
      </trkpt>
      <trkpt lat="43.59058" lon="3.78268">
        <ele>64.8</ele>
        <time>2022-02-20T12:33:17Z</time>
      </trkpt>
      <trkpt lat="43.59039" lon="3.78235">
        <ele>64.8</ele>
        <time>2022-02-20T12:33:37Z</time>
      </trkpt>
      <trkpt lat="43.59012" lon="3.78232">
        <ele>67.5</ele>
        <time>2022-02-20T12:33:47Z</time>
      </trkpt>
      <trkpt lat="43.58999" lon="3.78234">
        <ele>68.6</ele>
        <time>2022-02-20T12:33:57Z</time>
      </trkpt>
      <trkpt lat="43.58991" lon="3.78208">
        <ele>69.2</ele>
        <time>2022-02-20T12:34:07Z</time>
      </trkpt>
      <trkpt lat="43.5897" lon="3.78186">
        <ele>69.3</ele>
        <time>2022-02-20T12:34:17Z</time>
      </trkpt>
      <trkpt lat="43.58934" lon="3.78185">
        <ele>67.4</ele>
        <time>2022-02-20T12:34:27Z</time>
      </trkpt>
      <trkpt lat="43.58887" lon="3.78189">
        <ele>63.5</ele>
        <time>2022-02-20T12:34:37Z</time>
      </trkpt>
      <trkpt lat="43.5884" lon="3.78192">
        <ele>61.8</ele>
        <time>2022-02-20T12:34:47Z</time>
      </trkpt>
      <trkpt lat="43.58799" lon="3.78212">
        <ele>61.4</ele>
        <time>2022-02-20T12:34:57Z</time>
      </trkpt>
      <trkpt lat="43.58773" lon="3.78204">
        <ele>60.4</ele>
        <time>2022-02-20T12:35:07Z</time>
      </trkpt>
      <trkpt lat="43.5878" lon="3.78207">
        <ele>60.5</ele>
        <time>2022-02-20T12:35:17Z</time>
      </trkpt>
      <trkpt lat="43.5876" lon="3.78229">
        <ele>60.1</ele>
        <time>2022-02-20T12:35:27Z</time>
      </trkpt>
      <trkpt lat="43.58728" lon="3.78275">
        <ele>56.2</ele>
        <time>2022-02-20T12:35:37Z</time>
      </trkpt>
      <trkpt lat="43.58698" lon="3.78306">
        <ele>54</ele>
        <time>2022-02-20T12:35:47Z</time>
      </trkpt>
      <trkpt lat="43.5867" lon="3.78298">
        <ele>53.4</ele>
        <time>2022-02-20T12:35:57Z</time>
      </trkpt>
      <trkpt lat="43.58639" lon="3.78286">
        <ele>53.5</ele>
        <time>2022-02-20T12:36:07Z</time>
      </trkpt>
      <trkpt lat="43.58603" lon="3.78257">
        <ele>52.5</ele>
        <time>2022-02-20T12:36:17Z</time>
      </trkpt>
      <trkpt lat="43.58561" lon="3.78267">
        <ele>48.5</ele>
        <time>2022-02-20T12:36:27Z</time>
      </trkpt>
      <trkpt lat="43.58517" lon="3.78262">
        <ele>44.1</ele>
        <time>2022-02-20T12:36:37Z</time>
      </trkpt>
      <trkpt lat="43.58494" lon="3.78218">
        <ele>42.6</ele>
        <time>2022-02-20T12:36:47Z</time>
      </trkpt>
      <trkpt lat="43.58492" lon="3.78163">
        <ele>41.3</ele>
        <time>2022-02-20T12:36:57Z</time>
      </trkpt>
      <trkpt lat="43.58492" lon="3.78108">
        <ele>40</ele>
        <time>2022-02-20T12:37:07Z</time>
      </trkpt>
      <trkpt lat="43.58491" lon="3.78055">
        <ele>40</ele>
        <time>2022-02-20T12:37:17Z</time>
      </trkpt>
      <trkpt lat="43.58493" lon="3.78004">
        <ele>40</ele>
        <time>2022-02-20T12:37:27Z</time>
      </trkpt>
      <trkpt lat="43.58498" lon="3.77955">
        <ele>39.4</ele>
        <time>2022-02-20T12:37:37Z</time>
      </trkpt>
      <trkpt lat="43.58507" lon="3.77911">
        <ele>39.7</ele>
        <time>2022-02-20T12:37:47Z</time>
      </trkpt>
      <trkpt lat="43.58518" lon="3.77865">
        <ele>39.6</ele>
        <time>2022-02-20T12:37:57Z</time>
      </trkpt>
      <trkpt lat="43.58534" lon="3.7782">
        <ele>40</ele>
        <time>2022-02-20T12:38:07Z</time>
      </trkpt>
      <trkpt lat="43.58552" lon="3.77778">
        <ele>40.9</ele>
        <time>2022-02-20T12:38:17Z</time>
      </trkpt>
      <trkpt lat="43.58571" lon="3.77742">
        <ele>40.6</ele>
        <time>2022-02-20T12:38:27Z</time>
      </trkpt>
      <trkpt lat="43.58588" lon="3.77708">
        <ele>41.1</ele>
        <time>2022-02-20T12:38:37Z</time>
      </trkpt>
      <trkpt lat="43.58606" lon="3.77674">
        <ele>41.8</ele>
        <time>2022-02-20T12:38:47Z</time>
      </trkpt>
      <trkpt lat="43.58623" lon="3.7764">
        <ele>41.5</ele>
        <time>2022-02-20T12:38:57Z</time>
      </trkpt>
      <trkpt lat="43.58641" lon="3.77607">
        <ele>42.1</ele>
        <time>2022-02-20T12:39:07Z</time>
      </trkpt>
      <trkpt lat="43.58658" lon="3.77574">
        <ele>42.7</ele>
        <time>2022-02-20T12:39:17Z</time>
      </trkpt>
      <trkpt lat="43.58672" lon="3.77541">
        <ele>42.8</ele>
        <time>2022-02-20T12:39:27Z</time>
      </trkpt>
      <trkpt lat="43.58686" lon="3.77509">
        <ele>43.6</ele>
        <time>2022-02-20T12:39:37Z</time>
      </trkpt>
      <trkpt lat="43.58691" lon="3.77479">
        <ele>43.9</ele>
        <time>2022-02-20T12:39:47Z</time>
      </trkpt>
      <trkpt lat="43.58686" lon="3.77468">
        <ele>43.6</ele>
        <time>2022-02-20T12:40:57Z</time>
      </trkpt>
      <trkpt lat="43.58694" lon="3.77477">
        <ele>44</ele>
        <time>2022-02-20T12:41:17Z</time>
      </trkpt>
      <trkpt lat="43.58706" lon="3.77497">
        <ele>44</ele>
        <time>2022-02-20T12:47:47Z</time>
      </trkpt>
      <trkpt lat="43.58722" lon="3.7748">
        <ele>44</ele>
        <time>2022-02-20T12:48:07Z</time>
      </trkpt>
      <trkpt lat="43.58739" lon="3.77462">
        <ele>44.6</ele>
        <time>2022-02-20T12:48:17Z</time>
      </trkpt>
      <trkpt lat="43.58759" lon="3.77487">
        <ele>45.3</ele>
        <time>2022-02-20T12:48:27Z</time>
      </trkpt>
      <trkpt lat="43.58779" lon="3.77516">
        <ele>46</ele>
        <time>2022-02-20T12:48:37Z</time>
      </trkpt>
      <trkpt lat="43.58798" lon="3.77546">
        <ele>46.7</ele>
        <time>2022-02-20T12:48:47Z</time>
      </trkpt>
      <trkpt lat="43.58816" lon="3.77574">
        <ele>47.8</ele>
        <time>2022-02-20T12:48:57Z</time>
      </trkpt>
      <trkpt lat="43.58833" lon="3.77599">
        <ele>48.4</ele>
        <time>2022-02-20T12:49:07Z</time>
      </trkpt>
      <trkpt lat="43.58853" lon="3.77624">
        <ele>49.1</ele>
        <time>2022-02-20T12:49:17Z</time>
      </trkpt>
      <trkpt lat="43.58873" lon="3.77649">
        <ele>49.4</ele>
        <time>2022-02-20T12:49:27Z</time>
      </trkpt>
      <trkpt lat="43.58894" lon="3.77681">
        <ele>49.5</ele>
        <time>2022-02-20T12:49:37Z</time>
      </trkpt>
      <trkpt lat="43.58915" lon="3.7772">
        <ele>48.1</ele>
        <time>2022-02-20T12:49:47Z</time>
      </trkpt>
      <trkpt lat="43.58938" lon="3.77764">
        <ele>47.5</ele>
        <time>2022-02-20T12:49:57Z</time>
      </trkpt>
      <trkpt lat="43.58957" lon="3.77811">
        <ele>47</ele>
        <time>2022-02-20T12:50:07Z</time>
      </trkpt>
      <trkpt lat="43.58992" lon="3.77829">
        <ele>47</ele>
        <time>2022-02-20T12:50:17Z</time>
      </trkpt>
      <trkpt lat="43.59023" lon="3.77851">
        <ele>47.9</ele>
        <time>2022-02-20T12:50:27Z</time>
      </trkpt>
      <trkpt lat="43.59049" lon="3.77881">
        <ele>48.9</ele>
        <time>2022-02-20T12:50:37Z</time>
      </trkpt>
      <trkpt lat="43.59073" lon="3.77912">
        <ele>49.8</ele>
        <time>2022-02-20T12:50:47Z</time>
      </trkpt>
      <trkpt lat="43.59094" lon="3.77943">
        <ele>50.9</ele>
        <time>2022-02-20T12:50:57Z</time>
      </trkpt>
      <trkpt lat="43.59117" lon="3.77974">
        <ele>51.8</ele>
        <time>2022-02-20T12:51:07Z</time>
      </trkpt>
      <trkpt lat="43.59142" lon="3.78013">
        <ele>50.9</ele>
        <time>2022-02-20T12:51:17Z</time>
      </trkpt>
      <trkpt lat="43.59168" lon="3.78052">
        <ele>50</ele>
        <time>2022-02-20T12:51:27Z</time>
      </trkpt>
      <trkpt lat="43.59197" lon="3.78089">
        <ele>49.9</ele>
        <time>2022-02-20T12:51:37Z</time>
      </trkpt>
      <trkpt lat="43.59234" lon="3.78122">
        <ele>48.8</ele>
        <time>2022-02-20T12:51:47Z</time>
      </trkpt>
      <trkpt lat="43.59271" lon="3.78154">
        <ele>47.6</ele>
        <time>2022-02-20T12:51:57Z</time>
      </trkpt>
      <trkpt lat="43.5931" lon="3.78176">
        <ele>47.7</ele>
        <time>2022-02-20T12:52:07Z</time>
      </trkpt>
      <trkpt lat="43.59326" lon="3.78148">
        <ele>48.7</ele>
        <time>2022-02-20T12:52:17Z</time>
      </trkpt>
      <trkpt lat="43.59336" lon="3.7811">
        <ele>48.9</ele>
        <time>2022-02-20T12:52:27Z</time>
      </trkpt>
      <trkpt lat="43.59337" lon="3.78068">
        <ele>49.6</ele>
        <time>2022-02-20T12:52:37Z</time>
      </trkpt>
      <trkpt lat="43.59334" lon="3.78026">
        <ele>50</ele>
        <time>2022-02-20T12:52:47Z</time>
      </trkpt>
      <trkpt lat="43.59333" lon="3.77985">
        <ele>50</ele>
        <time>2022-02-20T12:52:57Z</time>
      </trkpt>
      <trkpt lat="43.59335" lon="3.77942">
        <ele>51</ele>
        <time>2022-02-20T12:53:07Z</time>
      </trkpt>
      <trkpt lat="43.5934" lon="3.779">
        <ele>51</ele>
        <time>2022-02-20T12:53:17Z</time>
      </trkpt>
      <trkpt lat="43.59345" lon="3.77858">
        <ele>51.1</ele>
        <time>2022-02-20T12:53:27Z</time>
      </trkpt>
      <trkpt lat="43.59352" lon="3.77818">
        <ele>52</ele>
        <time>2022-02-20T12:53:37Z</time>
      </trkpt>
      <trkpt lat="43.59369" lon="3.77784">
        <ele>52</ele>
        <time>2022-02-20T12:53:47Z</time>
      </trkpt>
      <trkpt lat="43.5939" lon="3.77753">
        <ele>52</ele>
        <time>2022-02-20T12:53:57Z</time>
      </trkpt>
      <trkpt lat="43.59413" lon="3.77723">
        <ele>52.1</ele>
        <time>2022-02-20T12:54:07Z</time>
      </trkpt>
      <trkpt lat="43.59432" lon="3.77696">
        <ele>53</ele>
        <time>2022-02-20T12:54:17Z</time>
      </trkpt>
      <trkpt lat="43.59415" lon="3.77657">
        <ele>53.3</ele>
        <time>2022-02-20T12:54:27Z</time>
      </trkpt>
      <trkpt lat="43.59404" lon="3.77615">
        <ele>54</ele>
        <time>2022-02-20T12:54:37Z</time>
      </trkpt>
      <trkpt lat="43.59398" lon="3.77579">
        <ele>54.2</ele>
        <time>2022-02-20T12:54:47Z</time>
      </trkpt>
      <trkpt lat="43.59413" lon="3.77558">
        <ele>54.9</ele>
        <time>2022-02-20T12:55:07Z</time>
      </trkpt>
      <trkpt lat="43.59436" lon="3.77533">
        <ele>55</ele>
        <time>2022-02-20T12:55:27Z</time>
      </trkpt>
      <trkpt lat="43.59459" lon="3.77505">
        <ele>55.8</ele>
        <time>2022-02-20T12:55:37Z</time>
      </trkpt>
      <trkpt lat="43.59465" lon="3.77465">
        <ele>56.3</ele>
        <time>2022-02-20T12:55:47Z</time>
      </trkpt>
      <trkpt lat="43.59467" lon="3.77421">
        <ele>57.7</ele>
        <time>2022-02-20T12:55:57Z</time>
      </trkpt>
      <trkpt lat="43.59486" lon="3.77387">
        <ele>59</ele>
        <time>2022-02-20T12:56:07Z</time>
      </trkpt>
      <trkpt lat="43.59508" lon="3.77357">
        <ele>59.1</ele>
        <time>2022-02-20T12:56:17Z</time>
      </trkpt>
      <trkpt lat="43.5954" lon="3.7734">
        <ele>59.3</ele>
        <time>2022-02-20T12:56:27Z</time>
      </trkpt>
      <trkpt lat="43.5957" lon="3.77311">
        <ele>59.4</ele>
        <time>2022-02-20T12:56:37Z</time>
      </trkpt>
      <trkpt lat="43.59601" lon="3.77282">
        <ele>60.2</ele>
        <time>2022-02-20T12:56:47Z</time>
      </trkpt>
      <trkpt lat="43.59634" lon="3.77257">
        <ele>60.7</ele>
        <time>2022-02-20T12:56:57Z</time>
      </trkpt>
      <trkpt lat="43.59668" lon="3.77234">
        <ele>60.6</ele>
        <time>2022-02-20T12:57:07Z</time>
      </trkpt>
      <trkpt lat="43.59696" lon="3.77206">
        <ele>61.6</ele>
        <time>2022-02-20T12:57:17Z</time>
      </trkpt>
      <trkpt lat="43.59723" lon="3.77178">
        <ele>62.6</ele>
        <time>2022-02-20T12:57:27Z</time>
      </trkpt>
      <trkpt lat="43.59752" lon="3.77152">
        <ele>64</ele>
        <time>2022-02-20T12:57:37Z</time>
      </trkpt>
      <trkpt lat="43.5978" lon="3.77124">
        <ele>65</ele>
        <time>2022-02-20T12:57:47Z</time>
      </trkpt>
      <trkpt lat="43.59805" lon="3.77099">
        <ele>65.9</ele>
        <time>2022-02-20T12:57:57Z</time>
      </trkpt>
      <trkpt lat="43.59828" lon="3.77069">
        <ele>66.4</ele>
        <time>2022-02-20T12:58:07Z</time>
      </trkpt>
      <trkpt lat="43.59849" lon="3.7704">
        <ele>67.5</ele>
        <time>2022-02-20T12:58:17Z</time>
      </trkpt>
      <trkpt lat="43.59868" lon="3.77011">
        <ele>69.2</ele>
        <time>2022-02-20T12:58:27Z</time>
      </trkpt>
      <trkpt lat="43.5988" lon="3.76985">
        <ele>69.6</ele>
        <time>2022-02-20T12:58:37Z</time>
      </trkpt>
      <trkpt lat="43.59891" lon="3.76956">
        <ele>69.9</ele>
        <time>2022-02-20T12:58:47Z</time>
      </trkpt>
      <trkpt lat="43.59903" lon="3.76918">
        <ele>71.9</ele>
        <time>2022-02-20T12:58:57Z</time>
      </trkpt>
      <trkpt lat="43.59914" lon="3.76879">
        <ele>71.3</ele>
        <time>2022-02-20T12:59:07Z</time>
      </trkpt>
      <trkpt lat="43.59922" lon="3.76837">
        <ele>73.6</ele>
        <time>2022-02-20T12:59:17Z</time>
      </trkpt>
      <trkpt lat="43.59934" lon="3.76794">
        <ele>73.9</ele>
        <time>2022-02-20T12:59:27Z</time>
      </trkpt>
      <trkpt lat="43.59944" lon="3.76752">
        <ele>74</ele>
        <time>2022-02-20T12:59:37Z</time>
      </trkpt>
      <trkpt lat="43.59952" lon="3.76711">
        <ele>75.3</ele>
        <time>2022-02-20T12:59:47Z</time>
      </trkpt>
      <trkpt lat="43.59958" lon="3.7667">
        <ele>76</ele>
        <time>2022-02-20T12:59:57Z</time>
      </trkpt>
      <trkpt lat="43.59961" lon="3.76626">
        <ele>76.8</ele>
        <time>2022-02-20T13:00:07Z</time>
      </trkpt>
      <trkpt lat="43.59968" lon="3.76583">
        <ele>76.8</ele>
        <time>2022-02-20T13:00:17Z</time>
      </trkpt>
      <trkpt lat="43.59983" lon="3.76549">
        <ele>78.6</ele>
        <time>2022-02-20T13:00:27Z</time>
      </trkpt>
      <trkpt lat="43.60006" lon="3.76522">
        <ele>78.7</ele>
        <time>2022-02-20T13:00:37Z</time>
      </trkpt>
      <trkpt lat="43.60029" lon="3.76501">
        <ele>78.9</ele>
        <time>2022-02-20T13:00:47Z</time>
      </trkpt>
      <trkpt lat="43.60053" lon="3.76474">
        <ele>80.1</ele>
        <time>2022-02-20T13:00:57Z</time>
      </trkpt>
      <trkpt lat="43.60079" lon="3.76445">
        <ele>81.4</ele>
        <time>2022-02-20T13:01:07Z</time>
      </trkpt>
      <trkpt lat="43.60098" lon="3.76415">
        <ele>82.6</ele>
        <time>2022-02-20T13:01:17Z</time>
      </trkpt>
      <trkpt lat="43.60116" lon="3.76383">
        <ele>83.7</ele>
        <time>2022-02-20T13:01:27Z</time>
      </trkpt>
      <trkpt lat="43.60133" lon="3.76348">
        <ele>85</ele>
        <time>2022-02-20T13:01:37Z</time>
      </trkpt>
      <trkpt lat="43.60144" lon="3.7632">
        <ele>86</ele>
        <time>2022-02-20T13:01:47Z</time>
      </trkpt>
      <trkpt lat="43.60147" lon="3.76279">
        <ele>87.8</ele>
        <time>2022-02-20T13:01:57Z</time>
      </trkpt>
      <trkpt lat="43.6014" lon="3.76234">
        <ele>88.9</ele>
        <time>2022-02-20T13:02:07Z</time>
      </trkpt>
      <trkpt lat="43.60128" lon="3.76201">
        <ele>89.9</ele>
        <time>2022-02-20T13:02:17Z</time>
      </trkpt>
      <trkpt lat="43.60113" lon="3.76182">
        <ele>91</ele>
        <time>2022-02-20T13:02:27Z</time>
      </trkpt>
      <trkpt lat="43.60098" lon="3.76155">
        <ele>90.8</ele>
        <time>2022-02-20T13:02:37Z</time>
      </trkpt>
      <trkpt lat="43.60083" lon="3.76135">
        <ele>90.8</ele>
        <time>2022-02-20T13:02:47Z</time>
      </trkpt>
      <trkpt lat="43.60074" lon="3.76117">
        <ele>91.2</ele>
        <time>2022-02-20T13:02:57Z</time>
      </trkpt>
      <trkpt lat="43.60065" lon="3.76088">
        <ele>92.3</ele>
        <time>2022-02-20T13:03:07Z</time>
      </trkpt>
      <trkpt lat="43.60062" lon="3.76055">
        <ele>92.3</ele>
        <time>2022-02-20T13:03:17Z</time>
      </trkpt>
      <trkpt lat="43.60075" lon="3.7603">
        <ele>91.5</ele>
        <time>2022-02-20T13:03:27Z</time>
      </trkpt>
      <trkpt lat="43.60081" lon="3.76013">
        <ele>91.1</ele>
        <time>2022-02-20T13:04:47Z</time>
      </trkpt>
      <trkpt lat="43.60086" lon="3.75977">
        <ele>91.4</ele>
        <time>2022-02-20T13:05:07Z</time>
      </trkpt>
      <trkpt lat="43.60099" lon="3.75943">
        <ele>92.6</ele>
        <time>2022-02-20T13:05:17Z</time>
      </trkpt>
      <trkpt lat="43.60117" lon="3.75913">
        <ele>92.7</ele>
        <time>2022-02-20T13:05:27Z</time>
      </trkpt>
      <trkpt lat="43.60141" lon="3.75892">
        <ele>94.3</ele>
        <time>2022-02-20T13:05:37Z</time>
      </trkpt>
      <trkpt lat="43.60168" lon="3.75883">
        <ele>95.9</ele>
        <time>2022-02-20T13:05:47Z</time>
      </trkpt>
      <trkpt lat="43.60189" lon="3.75864">
        <ele>96.7</ele>
        <time>2022-02-20T13:05:57Z</time>
      </trkpt>
      <trkpt lat="43.60214" lon="3.75844">
        <ele>97.4</ele>
        <time>2022-02-20T13:06:07Z</time>
      </trkpt>
      <trkpt lat="43.60237" lon="3.75819">
        <ele>97.8</ele>
        <time>2022-02-20T13:06:17Z</time>
      </trkpt>
      <trkpt lat="43.60254" lon="3.75782">
        <ele>97.9</ele>
        <time>2022-02-20T13:06:27Z</time>
      </trkpt>
      <trkpt lat="43.60273" lon="3.75735">
        <ele>97</ele>
        <time>2022-02-20T13:06:37Z</time>
      </trkpt>
      <trkpt lat="43.60291" lon="3.7569">
        <ele>96.9</ele>
        <time>2022-02-20T13:06:47Z</time>
      </trkpt>
      <trkpt lat="43.60308" lon="3.75646">
        <ele>97.7</ele>
        <time>2022-02-20T13:06:57Z</time>
      </trkpt>
      <trkpt lat="43.60315" lon="3.756">
        <ele>98</ele>
        <time>2022-02-20T13:07:07Z</time>
      </trkpt>
      <trkpt lat="43.6031" lon="3.75556">
        <ele>98.9</ele>
        <time>2022-02-20T13:07:17Z</time>
      </trkpt>
      <trkpt lat="43.60313" lon="3.75509">
        <ele>99.2</ele>
        <time>2022-02-20T13:07:27Z</time>
      </trkpt>
      <trkpt lat="43.60313" lon="3.75462">
        <ele>100.3</ele>
        <time>2022-02-20T13:07:37Z</time>
      </trkpt>
      <trkpt lat="43.60289" lon="3.75426">
        <ele>101.3</ele>
        <time>2022-02-20T13:07:47Z</time>
      </trkpt>
      <trkpt lat="43.60276" lon="3.75384">
        <ele>101.4</ele>
        <time>2022-02-20T13:07:57Z</time>
      </trkpt>
      <trkpt lat="43.60277" lon="3.7534">
        <ele>102.8</ele>
        <time>2022-02-20T13:08:07Z</time>
      </trkpt>
      <trkpt lat="43.60278" lon="3.75297">
        <ele>101.7</ele>
        <time>2022-02-20T13:08:17Z</time>
      </trkpt>
      <trkpt lat="43.60303" lon="3.7526">
        <ele>101.8</ele>
        <time>2022-02-20T13:08:27Z</time>
      </trkpt>
      <trkpt lat="43.60329" lon="3.75224">
        <ele>101.7</ele>
        <time>2022-02-20T13:08:37Z</time>
      </trkpt>
      <trkpt lat="43.60355" lon="3.75187">
        <ele>101.7</ele>
        <time>2022-02-20T13:08:47Z</time>
      </trkpt>
      <trkpt lat="43.60381" lon="3.75149">
        <ele>101.6</ele>
        <time>2022-02-20T13:08:57Z</time>
      </trkpt>
      <trkpt lat="43.60409" lon="3.75114">
        <ele>101.4</ele>
        <time>2022-02-20T13:09:07Z</time>
      </trkpt>
      <trkpt lat="43.60434" lon="3.75076">
        <ele>101.4</ele>
        <time>2022-02-20T13:09:17Z</time>
      </trkpt>
      <trkpt lat="43.60455" lon="3.75038">
        <ele>100.8</ele>
        <time>2022-02-20T13:09:27Z</time>
      </trkpt>
      <trkpt lat="43.60476" lon="3.75024">
        <ele>101.3</ele>
        <time>2022-02-20T13:09:37Z</time>
      </trkpt>
      <trkpt lat="43.60499" lon="3.75003">
        <ele>102.1</ele>
        <time>2022-02-20T13:09:47Z</time>
      </trkpt>
      <trkpt lat="43.60525" lon="3.74979">
        <ele>102.9</ele>
        <time>2022-02-20T13:09:57Z</time>
      </trkpt>
      <trkpt lat="43.60546" lon="3.74949">
        <ele>103.5</ele>
        <time>2022-02-20T13:10:07Z</time>
      </trkpt>
      <trkpt lat="43.60557" lon="3.74914">
        <ele>105.9</ele>
        <time>2022-02-20T13:10:17Z</time>
      </trkpt>
      <trkpt lat="43.60566" lon="3.74879">
        <ele>107.1</ele>
        <time>2022-02-20T13:10:27Z</time>
      </trkpt>
      <trkpt lat="43.60573" lon="3.74845">
        <ele>108.9</ele>
        <time>2022-02-20T13:10:37Z</time>
      </trkpt>
      <trkpt lat="43.60585" lon="3.74814">
        <ele>110.5</ele>
        <time>2022-02-20T13:10:47Z</time>
      </trkpt>
      <trkpt lat="43.60591" lon="3.74779">
        <ele>111.7</ele>
        <time>2022-02-20T13:10:57Z</time>
      </trkpt>
      <trkpt lat="43.60593" lon="3.74743">
        <ele>112.5</ele>
        <time>2022-02-20T13:11:07Z</time>
      </trkpt>
      <trkpt lat="43.6059" lon="3.74709">
        <ele>113.1</ele>
        <time>2022-02-20T13:11:17Z</time>
      </trkpt>
      <trkpt lat="43.60597" lon="3.74678">
        <ele>113.5</ele>
        <time>2022-02-20T13:11:27Z</time>
      </trkpt>
      <trkpt lat="43.60605" lon="3.74644">
        <ele>114.4</ele>
        <time>2022-02-20T13:11:37Z</time>
      </trkpt>
      <trkpt lat="43.60616" lon="3.74609">
        <ele>114.8</ele>
        <time>2022-02-20T13:11:47Z</time>
      </trkpt>
      <trkpt lat="43.60627" lon="3.74574">
        <ele>114.8</ele>
        <time>2022-02-20T13:11:57Z</time>
      </trkpt>
      <trkpt lat="43.60638" lon="3.74543">
        <ele>115.5</ele>
        <time>2022-02-20T13:12:07Z</time>
      </trkpt>
      <trkpt lat="43.60644" lon="3.7451">
        <ele>116.8</ele>
        <time>2022-02-20T13:12:17Z</time>
      </trkpt>
      <trkpt lat="43.60652" lon="3.74473">
        <ele>118</ele>
        <time>2022-02-20T13:12:27Z</time>
      </trkpt>
      <trkpt lat="43.60661" lon="3.74435">
        <ele>117.9</ele>
        <time>2022-02-20T13:12:37Z</time>
      </trkpt>
      <trkpt lat="43.60671" lon="3.74397">
        <ele>118</ele>
        <time>2022-02-20T13:12:47Z</time>
      </trkpt>
      <trkpt lat="43.60682" lon="3.74361">
        <ele>119</ele>
        <time>2022-02-20T13:12:57Z</time>
      </trkpt>
      <trkpt lat="43.6069" lon="3.74323">
        <ele>120.7</ele>
        <time>2022-02-20T13:13:07Z</time>
      </trkpt>
      <trkpt lat="43.60697" lon="3.74286">
        <ele>122.6</ele>
        <time>2022-02-20T13:13:17Z</time>
      </trkpt>
      <trkpt lat="43.60704" lon="3.7425">
        <ele>124</ele>
        <time>2022-02-20T13:13:27Z</time>
      </trkpt>
      <trkpt lat="43.60717" lon="3.74215">
        <ele>125.1</ele>
        <time>2022-02-20T13:13:37Z</time>
      </trkpt>
      <trkpt lat="43.60732" lon="3.74184">
        <ele>126.2</ele>
        <time>2022-02-20T13:13:47Z</time>
      </trkpt>
      <trkpt lat="43.60751" lon="3.74154">
        <ele>127.4</ele>
        <time>2022-02-20T13:13:57Z</time>
      </trkpt>
      <trkpt lat="43.60777" lon="3.74128">
        <ele>128.4</ele>
        <time>2022-02-20T13:14:07Z</time>
      </trkpt>
      <trkpt lat="43.60807" lon="3.74102">
        <ele>127.3</ele>
        <time>2022-02-20T13:14:17Z</time>
      </trkpt>
      <trkpt lat="43.60835" lon="3.74078">
        <ele>128.7</ele>
        <time>2022-02-20T13:14:27Z</time>
      </trkpt>
      <trkpt lat="43.60859" lon="3.74057">
        <ele>130</ele>
        <time>2022-02-20T13:14:37Z</time>
      </trkpt>
      <trkpt lat="43.60871" lon="3.74022">
        <ele>132.6</ele>
        <time>2022-02-20T13:14:47Z</time>
      </trkpt>
      <trkpt lat="43.60873" lon="3.73984">
        <ele>134.5</ele>
        <time>2022-02-20T13:14:57Z</time>
      </trkpt>
      <trkpt lat="43.60873" lon="3.7395">
        <ele>136.7</ele>
        <time>2022-02-20T13:15:07Z</time>
      </trkpt>
      <trkpt lat="43.60873" lon="3.73919">
        <ele>138.5</ele>
        <time>2022-02-20T13:15:17Z</time>
      </trkpt>
      <trkpt lat="43.60873" lon="3.73888">
        <ele>140.5</ele>
        <time>2022-02-20T13:15:27Z</time>
      </trkpt>
      <trkpt lat="43.60874" lon="3.73857">
        <ele>142.6</ele>
        <time>2022-02-20T13:15:37Z</time>
      </trkpt>
      <trkpt lat="43.60877" lon="3.73832">
        <ele>143.6</ele>
        <time>2022-02-20T13:15:47Z</time>
      </trkpt>
      <trkpt lat="43.60875" lon="3.73806">
        <ele>143.5</ele>
        <time>2022-02-20T13:16:37Z</time>
      </trkpt>
      <trkpt lat="43.60881" lon="3.73787">
        <ele>145.2</ele>
        <time>2022-02-20T13:16:57Z</time>
      </trkpt>
      <trkpt lat="43.60893" lon="3.73764">
        <ele>145.6</ele>
        <time>2022-02-20T13:17:07Z</time>
      </trkpt>
      <trkpt lat="43.6091" lon="3.7374">
        <ele>144.8</ele>
        <time>2022-02-20T13:17:17Z</time>
      </trkpt>
      <trkpt lat="43.60933" lon="3.73707">
        <ele>143.1</ele>
        <time>2022-02-20T13:17:27Z</time>
      </trkpt>
      <trkpt lat="43.60947" lon="3.73672">
        <ele>143.4</ele>
        <time>2022-02-20T13:17:37Z</time>
      </trkpt>
      <trkpt lat="43.60936" lon="3.73633">
        <ele>143.2</ele>
        <time>2022-02-20T13:17:47Z</time>
      </trkpt>
      <trkpt lat="43.60925" lon="3.73603">
        <ele>143.8</ele>
        <time>2022-02-20T13:17:57Z</time>
      </trkpt>
      <trkpt lat="43.60916" lon="3.73574">
        <ele>145.7</ele>
        <time>2022-02-20T13:18:07Z</time>
      </trkpt>
      <trkpt lat="43.60906" lon="3.73547">
        <ele>147.5</ele>
        <time>2022-02-20T13:18:17Z</time>
      </trkpt>
      <trkpt lat="43.60902" lon="3.73521">
        <ele>148.6</ele>
        <time>2022-02-20T13:18:27Z</time>
      </trkpt>
      <trkpt lat="43.60887" lon="3.73489">
        <ele>147.6</ele>
        <time>2022-02-20T13:18:37Z</time>
      </trkpt>
      <trkpt lat="43.60883" lon="3.73445">
        <ele>147.1</ele>
        <time>2022-02-20T13:18:47Z</time>
      </trkpt>
      <trkpt lat="43.60883" lon="3.73402">
        <ele>148.5</ele>
        <time>2022-02-20T13:18:57Z</time>
      </trkpt>
      <trkpt lat="43.60877" lon="3.73365">
        <ele>148.8</ele>
        <time>2022-02-20T13:19:07Z</time>
      </trkpt>
      <trkpt lat="43.60876" lon="3.73324">
        <ele>148.8</ele>
        <time>2022-02-20T13:19:17Z</time>
      </trkpt>
      <trkpt lat="43.6088" lon="3.7328">
        <ele>149.8</ele>
        <time>2022-02-20T13:19:27Z</time>
      </trkpt>
      <trkpt lat="43.60881" lon="3.73244">
        <ele>150.6</ele>
        <time>2022-02-20T13:19:37Z</time>
      </trkpt>
      <trkpt lat="43.6087" lon="3.73207">
        <ele>151.6</ele>
        <time>2022-02-20T13:19:47Z</time>
      </trkpt>
      <trkpt lat="43.60865" lon="3.7318">
        <ele>152.8</ele>
        <time>2022-02-20T13:19:57Z</time>
      </trkpt>
      <trkpt lat="43.60849" lon="3.73148">
        <ele>151.6</ele>
        <time>2022-02-20T13:20:07Z</time>
      </trkpt>
      <trkpt lat="43.60841" lon="3.73115">
        <ele>152.2</ele>
        <time>2022-02-20T13:20:17Z</time>
      </trkpt>
      <trkpt lat="43.60841" lon="3.73085">
        <ele>154.5</ele>
        <time>2022-02-20T13:20:27Z</time>
      </trkpt>
      <trkpt lat="43.60836" lon="3.73047">
        <ele>155.3</ele>
        <time>2022-02-20T13:20:37Z</time>
      </trkpt>
      <trkpt lat="43.60834" lon="3.73005">
        <ele>156.2</ele>
        <time>2022-02-20T13:20:47Z</time>
      </trkpt>
      <trkpt lat="43.60831" lon="3.72965">
        <ele>156.6</ele>
        <time>2022-02-20T13:20:57Z</time>
      </trkpt>
      <trkpt lat="43.60828" lon="3.72917">
        <ele>156.5</ele>
        <time>2022-02-20T13:21:07Z</time>
      </trkpt>
      <trkpt lat="43.60826" lon="3.72882">
        <ele>155.2</ele>
        <time>2022-02-20T13:21:17Z</time>
      </trkpt>
      <trkpt lat="43.6083" lon="3.72856">
        <ele>156</ele>
        <time>2022-02-20T13:21:27Z</time>
      </trkpt>
      <trkpt lat="43.60835" lon="3.72823">
        <ele>155.1</ele>
        <time>2022-02-20T13:21:37Z</time>
      </trkpt>
      <trkpt lat="43.60837" lon="3.72785">
        <ele>154.9</ele>
        <time>2022-02-20T13:21:47Z</time>
      </trkpt>
      <trkpt lat="43.60828" lon="3.7275">
        <ele>154.6</ele>
        <time>2022-02-20T13:21:57Z</time>
      </trkpt>
      <trkpt lat="43.60822" lon="3.72718">
        <ele>155.4</ele>
        <time>2022-02-20T13:22:07Z</time>
      </trkpt>
      <trkpt lat="43.60817" lon="3.72687">
        <ele>156.9</ele>
        <time>2022-02-20T13:22:17Z</time>
      </trkpt>
      <trkpt lat="43.60813" lon="3.72656">
        <ele>158</ele>
        <time>2022-02-20T13:22:27Z</time>
      </trkpt>
      <trkpt lat="43.60807" lon="3.72625">
        <ele>158.9</ele>
        <time>2022-02-20T13:22:37Z</time>
      </trkpt>
      <trkpt lat="43.60802" lon="3.72596">
        <ele>159.6</ele>
        <time>2022-02-20T13:22:47Z</time>
      </trkpt>
      <trkpt lat="43.60793" lon="3.72569">
        <ele>161.5</ele>
        <time>2022-02-20T13:22:57Z</time>
      </trkpt>
      <trkpt lat="43.60783" lon="3.72542">
        <ele>162.9</ele>
        <time>2022-02-20T13:23:07Z</time>
      </trkpt>
      <trkpt lat="43.60775" lon="3.72513">
        <ele>163.4</ele>
        <time>2022-02-20T13:23:17Z</time>
      </trkpt>
      <trkpt lat="43.60767" lon="3.72483">
        <ele>164.6</ele>
        <time>2022-02-20T13:23:27Z</time>
      </trkpt>
      <trkpt lat="43.60759" lon="3.72456">
        <ele>165.9</ele>
        <time>2022-02-20T13:23:37Z</time>
      </trkpt>
      <trkpt lat="43.60751" lon="3.72432">
        <ele>166.9</ele>
        <time>2022-02-20T13:23:47Z</time>
      </trkpt>
      <trkpt lat="43.60746" lon="3.7241">
        <ele>167.8</ele>
        <time>2022-02-20T13:23:57Z</time>
      </trkpt>
      <trkpt lat="43.60735" lon="3.72389">
        <ele>170.2</ele>
        <time>2022-02-20T13:24:07Z</time>
      </trkpt>
      <trkpt lat="43.60726" lon="3.72367">
        <ele>172.4</ele>
        <time>2022-02-20T13:24:17Z</time>
      </trkpt>
      <trkpt lat="43.60716" lon="3.72351">
        <ele>174.2</ele>
        <time>2022-02-20T13:24:27Z</time>
      </trkpt>
      <trkpt lat="43.60705" lon="3.72334">
        <ele>175.9</ele>
        <time>2022-02-20T13:24:37Z</time>
      </trkpt>
      <trkpt lat="43.60696" lon="3.72311">
        <ele>176.9</ele>
        <time>2022-02-20T13:24:47Z</time>
      </trkpt>
      <trkpt lat="43.60704" lon="3.72286">
        <ele>177</ele>
        <time>2022-02-20T13:24:57Z</time>
      </trkpt>
      <trkpt lat="43.60714" lon="3.72266">
        <ele>177.9</ele>
        <time>2022-02-20T13:25:07Z</time>
      </trkpt>
      <trkpt lat="43.6072" lon="3.72243">
        <ele>179.7</ele>
        <time>2022-02-20T13:25:17Z</time>
      </trkpt>
      <trkpt lat="43.6072" lon="3.72217">
        <ele>180.5</ele>
        <time>2022-02-20T13:25:27Z</time>
      </trkpt>
      <trkpt lat="43.6072" lon="3.72192">
        <ele>181.6</ele>
        <time>2022-02-20T13:25:47Z</time>
      </trkpt>
      <trkpt lat="43.60716" lon="3.7216">
        <ele>183.5</ele>
        <time>2022-02-20T13:25:57Z</time>
      </trkpt>
      <trkpt lat="43.60714" lon="3.72137">
        <ele>184.9</ele>
        <time>2022-02-20T13:26:07Z</time>
      </trkpt>
      <trkpt lat="43.60714" lon="3.72115">
        <ele>187.6</ele>
        <time>2022-02-20T13:26:17Z</time>
      </trkpt>
      <trkpt lat="43.60716" lon="3.72092">
        <ele>189.3</ele>
        <time>2022-02-20T13:26:27Z</time>
      </trkpt>
      <trkpt lat="43.60718" lon="3.72067">
        <ele>190.5</ele>
        <time>2022-02-20T13:26:37Z</time>
      </trkpt>
      <trkpt lat="43.6072" lon="3.72043">
        <ele>192.3</ele>
        <time>2022-02-20T13:26:47Z</time>
      </trkpt>
      <trkpt lat="43.60714" lon="3.7202">
        <ele>194</ele>
        <time>2022-02-20T13:26:57Z</time>
      </trkpt>
      <trkpt lat="43.60706" lon="3.72004">
        <ele>196.1</ele>
        <time>2022-02-20T13:27:07Z</time>
      </trkpt>
      <trkpt lat="43.60696" lon="3.71991">
        <ele>197.2</ele>
        <time>2022-02-20T13:27:17Z</time>
      </trkpt>
      <trkpt lat="43.60686" lon="3.71978">
        <ele>198.8</ele>
        <time>2022-02-20T13:27:27Z</time>
      </trkpt>
      <trkpt lat="43.60679" lon="3.7196">
        <ele>201.1</ele>
        <time>2022-02-20T13:27:37Z</time>
      </trkpt>
      <trkpt lat="43.60676" lon="3.7194">
        <ele>203.5</ele>
        <time>2022-02-20T13:27:47Z</time>
      </trkpt>
      <trkpt lat="43.60674" lon="3.71919">
        <ele>205.5</ele>
        <time>2022-02-20T13:27:57Z</time>
      </trkpt>
      <trkpt lat="43.6067" lon="3.71898">
        <ele>206</ele>
        <time>2022-02-20T13:28:07Z</time>
      </trkpt>
      <trkpt lat="43.60666" lon="3.71874">
        <ele>205.4</ele>
        <time>2022-02-20T13:28:17Z</time>
      </trkpt>
      <trkpt lat="43.60659" lon="3.71841">
        <ele>204.2</ele>
        <time>2022-02-20T13:29:57Z</time>
      </trkpt>
      <trkpt lat="43.60652" lon="3.71813">
        <ele>201.1</ele>
        <time>2022-02-20T13:30:17Z</time>
      </trkpt>
      <trkpt lat="43.6064" lon="3.71785">
        <ele>198.6</ele>
        <time>2022-02-20T13:30:27Z</time>
      </trkpt>
      <trkpt lat="43.60626" lon="3.71754">
        <ele>196.8</ele>
        <time>2022-02-20T13:30:37Z</time>
      </trkpt>
      <trkpt lat="43.60609" lon="3.71721">
        <ele>194.6</ele>
        <time>2022-02-20T13:30:47Z</time>
      </trkpt>
      <trkpt lat="43.60622" lon="3.71691">
        <ele>193.3</ele>
        <time>2022-02-20T13:30:57Z</time>
      </trkpt>
      <trkpt lat="43.60656" lon="3.71674">
        <ele>191.4</ele>
        <time>2022-02-20T13:31:07Z</time>
      </trkpt>
      <trkpt lat="43.60693" lon="3.71654">
        <ele>189.6</ele>
        <time>2022-02-20T13:31:17Z</time>
      </trkpt>
      <trkpt lat="43.60712" lon="3.71609">
        <ele>187.3</ele>
        <time>2022-02-20T13:31:27Z</time>
      </trkpt>
      <trkpt lat="43.60712" lon="3.71563">
        <ele>186</ele>
        <time>2022-02-20T13:31:37Z</time>
      </trkpt>
      <trkpt lat="43.60703" lon="3.71524">
        <ele>183.6</ele>
        <time>2022-02-20T13:31:47Z</time>
      </trkpt>
      <trkpt lat="43.60695" lon="3.71491">
        <ele>179.6</ele>
        <time>2022-02-20T13:31:57Z</time>
      </trkpt>
      <trkpt lat="43.60687" lon="3.7146">
        <ele>176.4</ele>
        <time>2022-02-20T13:32:07Z</time>
      </trkpt>
      <trkpt lat="43.60682" lon="3.71426">
        <ele>172.9</ele>
        <time>2022-02-20T13:32:17Z</time>
      </trkpt>
      <trkpt lat="43.60693" lon="3.71429">
        <ele>172.4</ele>
        <time>2022-02-20T13:35:27Z</time>
      </trkpt>
      <trkpt lat="43.60701" lon="3.71441">
        <ele>172.3</ele>
        <time>2022-02-20T13:35:47Z</time>
      </trkpt>
      <trkpt lat="43.60717" lon="3.71456">
        <ele>170.7</ele>
        <time>2022-02-20T13:35:57Z</time>
      </trkpt>
      <trkpt lat="43.60735" lon="3.71467">
        <ele>169.9</ele>
        <time>2022-02-20T13:36:07Z</time>
      </trkpt>
      <trkpt lat="43.60753" lon="3.7147">
        <ele>168.2</ele>
        <time>2022-02-20T13:36:17Z</time>
      </trkpt>
      <trkpt lat="43.60769" lon="3.71487">
        <ele>167.7</ele>
        <time>2022-02-20T13:36:27Z</time>
      </trkpt>
      <trkpt lat="43.60779" lon="3.71519">
        <ele>167.8</ele>
        <time>2022-02-20T13:36:37Z</time>
      </trkpt>
      <trkpt lat="43.60773" lon="3.71552">
        <ele>167.6</ele>
        <time>2022-02-20T13:36:47Z</time>
      </trkpt>
      <trkpt lat="43.60768" lon="3.71584">
        <ele>168.8</ele>
        <time>2022-02-20T13:36:57Z</time>
      </trkpt>
      <trkpt lat="43.60787" lon="3.71544">
        <ele>165.9</ele>
        <time>2022-02-20T13:37:17Z</time>
      </trkpt>
      <trkpt lat="43.6079" lon="3.71491">
        <ele>164.9</ele>
        <time>2022-02-20T13:37:37Z</time>
      </trkpt>
      <trkpt lat="43.60787" lon="3.71446">
        <ele>162.7</ele>
        <time>2022-02-20T13:37:47Z</time>
      </trkpt>
      <trkpt lat="43.60789" lon="3.71423">
        <ele>161.8</ele>
        <time>2022-02-20T13:38:07Z</time>
      </trkpt>
      <trkpt lat="43.60793" lon="3.71382">
        <ele>161.8</ele>
        <time>2022-02-20T13:38:27Z</time>
      </trkpt>
      <trkpt lat="43.60798" lon="3.7134">
        <ele>161.4</ele>
        <time>2022-02-20T13:38:37Z</time>
      </trkpt>
      <trkpt lat="43.60804" lon="3.71292">
        <ele>159.4</ele>
        <time>2022-02-20T13:38:47Z</time>
      </trkpt>
      <trkpt lat="43.608" lon="3.71243">
        <ele>159.3</ele>
        <time>2022-02-20T13:38:57Z</time>
      </trkpt>
      <trkpt lat="43.60796" lon="3.71189">
        <ele>158.3</ele>
        <time>2022-02-20T13:39:07Z</time>
      </trkpt>
      <trkpt lat="43.60789" lon="3.7114">
        <ele>157.4</ele>
        <time>2022-02-20T13:39:17Z</time>
      </trkpt>
      <trkpt lat="43.60782" lon="3.71087">
        <ele>154.3</ele>
        <time>2022-02-20T13:39:27Z</time>
      </trkpt>
      <trkpt lat="43.60767" lon="3.71049">
        <ele>152.7</ele>
        <time>2022-02-20T13:39:37Z</time>
      </trkpt>
      <trkpt lat="43.60746" lon="3.71029">
        <ele>150.9</ele>
        <time>2022-02-20T13:43:27Z</time>
      </trkpt>
      <trkpt lat="43.60735" lon="3.71028">
        <ele>150</ele>
        <time>2022-02-20T13:43:47Z</time>
      </trkpt>
      <trkpt lat="43.60701" lon="3.71016">
        <ele>149.4</ele>
        <time>2022-02-20T13:43:57Z</time>
      </trkpt>
      <trkpt lat="43.60663" lon="3.70997">
        <ele>147.4</ele>
        <time>2022-02-20T13:44:07Z</time>
      </trkpt>
      <trkpt lat="43.60618" lon="3.70983">
        <ele>147.5</ele>
        <time>2022-02-20T13:44:17Z</time>
      </trkpt>
      <trkpt lat="43.60576" lon="3.71">
        <ele>145.5</ele>
        <time>2022-02-20T13:44:27Z</time>
      </trkpt>
      <trkpt lat="43.60533" lon="3.70995">
        <ele>145.1</ele>
        <time>2022-02-20T13:44:37Z</time>
      </trkpt>
      <trkpt lat="43.60498" lon="3.71015">
        <ele>144.9</ele>
        <time>2022-02-20T13:44:47Z</time>
      </trkpt>
      <trkpt lat="43.60466" lon="3.71051">
        <ele>144.1</ele>
        <time>2022-02-20T13:44:57Z</time>
      </trkpt>
      <trkpt lat="43.60442" lon="3.71096">
        <ele>144.3</ele>
        <time>2022-02-20T13:45:07Z</time>
      </trkpt>
      <trkpt lat="43.60404" lon="3.71108">
        <ele>144.3</ele>
        <time>2022-02-20T13:45:17Z</time>
      </trkpt>
      <trkpt lat="43.6036" lon="3.71104">
        <ele>143.2</ele>
        <time>2022-02-20T13:45:27Z</time>
      </trkpt>
      <trkpt lat="43.60319" lon="3.71104">
        <ele>142.1</ele>
        <time>2022-02-20T13:45:37Z</time>
      </trkpt>
      <trkpt lat="43.60273" lon="3.7111">
        <ele>139.6</ele>
        <time>2022-02-20T13:45:47Z</time>
      </trkpt>
      <trkpt lat="43.60223" lon="3.71116">
        <ele>138.1</ele>
        <time>2022-02-20T13:45:57Z</time>
      </trkpt>
      <trkpt lat="43.60178" lon="3.71133">
        <ele>136.3</ele>
        <time>2022-02-20T13:46:07Z</time>
      </trkpt>
      <trkpt lat="43.60136" lon="3.71132">
        <ele>136.6</ele>
        <time>2022-02-20T13:46:17Z</time>
      </trkpt>
      <trkpt lat="43.60102" lon="3.71092">
        <ele>135.4</ele>
        <time>2022-02-20T13:46:27Z</time>
      </trkpt>
      <trkpt lat="43.60069" lon="3.71026">
        <ele>132</ele>
        <time>2022-02-20T13:46:37Z</time>
      </trkpt>
      <trkpt lat="43.60031" lon="3.70989">
        <ele>128.2</ele>
        <time>2022-02-20T13:46:47Z</time>
      </trkpt>
      <trkpt lat="43.6" lon="3.70953">
        <ele>128.7</ele>
        <time>2022-02-20T13:46:57Z</time>
      </trkpt>
      <trkpt lat="43.59983" lon="3.70912">
        <ele>130</ele>
        <time>2022-02-20T13:47:07Z</time>
      </trkpt>
      <trkpt lat="43.59958" lon="3.70937">
        <ele>130.5</ele>
        <time>2022-02-20T13:47:17Z</time>
      </trkpt>
      <trkpt lat="43.59934" lon="3.7096">
        <ele>131.6</ele>
        <time>2022-02-20T13:47:27Z</time>
      </trkpt>
      <trkpt lat="43.59911" lon="3.70977">
        <ele>133.3</ele>
        <time>2022-02-20T13:47:37Z</time>
      </trkpt>
      <trkpt lat="43.59886" lon="3.70983">
        <ele>135.6</ele>
        <time>2022-02-20T13:47:47Z</time>
      </trkpt>
      <trkpt lat="43.59859" lon="3.70982">
        <ele>136.7</ele>
        <time>2022-02-20T13:47:57Z</time>
      </trkpt>
      <trkpt lat="43.59834" lon="3.70974">
        <ele>138.7</ele>
        <time>2022-02-20T13:48:07Z</time>
      </trkpt>
      <trkpt lat="43.5981" lon="3.70957">
        <ele>139.9</ele>
        <time>2022-02-20T13:48:17Z</time>
      </trkpt>
      <trkpt lat="43.59786" lon="3.70938">
        <ele>141.1</ele>
        <time>2022-02-20T13:48:27Z</time>
      </trkpt>
      <trkpt lat="43.59762" lon="3.70918">
        <ele>142.3</ele>
        <time>2022-02-20T13:48:37Z</time>
      </trkpt>
      <trkpt lat="43.59745" lon="3.7089">
        <ele>143.7</ele>
        <time>2022-02-20T13:48:47Z</time>
      </trkpt>
      <trkpt lat="43.59731" lon="3.70861">
        <ele>145.6</ele>
        <time>2022-02-20T13:48:57Z</time>
      </trkpt>
      <trkpt lat="43.59723" lon="3.70828">
        <ele>146.5</ele>
        <time>2022-02-20T13:49:07Z</time>
      </trkpt>
      <trkpt lat="43.59713" lon="3.70803">
        <ele>147.6</ele>
        <time>2022-02-20T13:49:17Z</time>
      </trkpt>
      <trkpt lat="43.59691" lon="3.70782">
        <ele>146.5</ele>
        <time>2022-02-20T13:49:27Z</time>
      </trkpt>
      <trkpt lat="43.59668" lon="3.70755">
        <ele>145.8</ele>
        <time>2022-02-20T13:49:37Z</time>
      </trkpt>
      <trkpt lat="43.59644" lon="3.70724">
        <ele>144.5</ele>
        <time>2022-02-20T13:49:47Z</time>
      </trkpt>
      <trkpt lat="43.59617" lon="3.70693">
        <ele>142.7</ele>
        <time>2022-02-20T13:49:57Z</time>
      </trkpt>
      <trkpt lat="43.59591" lon="3.70663">
        <ele>141.7</ele>
        <time>2022-02-20T13:50:07Z</time>
      </trkpt>
      <trkpt lat="43.59567" lon="3.70634">
        <ele>141.1</ele>
        <time>2022-02-20T13:50:17Z</time>
      </trkpt>
      <trkpt lat="43.5954" lon="3.70598">
        <ele>139.8</ele>
        <time>2022-02-20T13:50:27Z</time>
      </trkpt>
      <trkpt lat="43.59508" lon="3.70573">
        <ele>137.2</ele>
        <time>2022-02-20T13:50:37Z</time>
      </trkpt>
      <trkpt lat="43.59474" lon="3.70566">
        <ele>134.2</ele>
        <time>2022-02-20T13:50:47Z</time>
      </trkpt>
      <trkpt lat="43.59449" lon="3.70541">
        <ele>132.4</ele>
        <time>2022-02-20T13:50:57Z</time>
      </trkpt>
      <trkpt lat="43.59452" lon="3.705">
        <ele>132.8</ele>
        <time>2022-02-20T13:51:07Z</time>
      </trkpt>
      <trkpt lat="43.59459" lon="3.70463">
        <ele>133.2</ele>
        <time>2022-02-20T13:51:17Z</time>
      </trkpt>
      <trkpt lat="43.59464" lon="3.70415">
        <ele>132</ele>
        <time>2022-02-20T13:51:27Z</time>
      </trkpt>
      <trkpt lat="43.59452" lon="3.70358">
        <ele>129.5</ele>
        <time>2022-02-20T13:51:37Z</time>
      </trkpt>
      <trkpt lat="43.59408" lon="3.70341">
        <ele>130.3</ele>
        <time>2022-02-20T13:51:47Z</time>
      </trkpt>
      <trkpt lat="43.59366" lon="3.70322">
        <ele>130</ele>
        <time>2022-02-20T13:51:57Z</time>
      </trkpt>
      <trkpt lat="43.59325" lon="3.70305">
        <ele>130</ele>
        <time>2022-02-20T13:52:07Z</time>
      </trkpt>
      <trkpt lat="43.59287" lon="3.70276">
        <ele>129.9</ele>
        <time>2022-02-20T13:52:17Z</time>
      </trkpt>
      <trkpt lat="43.59252" lon="3.70244">
        <ele>129</ele>
        <time>2022-02-20T13:52:27Z</time>
      </trkpt>
      <trkpt lat="43.59204" lon="3.70233">
        <ele>128</ele>
        <time>2022-02-20T13:52:37Z</time>
      </trkpt>
      <trkpt lat="43.59163" lon="3.70203">
        <ele>128</ele>
        <time>2022-02-20T13:52:47Z</time>
      </trkpt>
      <trkpt lat="43.59132" lon="3.70161">
        <ele>126.7</ele>
        <time>2022-02-20T13:52:57Z</time>
      </trkpt>
      <trkpt lat="43.59112" lon="3.70101">
        <ele>122.3</ele>
        <time>2022-02-20T13:53:07Z</time>
      </trkpt>
      <trkpt lat="43.59065" lon="3.70036">
        <ele>117.3</ele>
        <time>2022-02-20T13:53:17Z</time>
      </trkpt>
      <trkpt lat="43.59024" lon="3.69983">
        <ele>115.1</ele>
        <time>2022-02-20T13:53:27Z</time>
      </trkpt>
      <trkpt lat="43.58998" lon="3.69932">
        <ele>110.3</ele>
        <time>2022-02-20T13:53:37Z</time>
      </trkpt>
      <trkpt lat="43.59" lon="3.69875">
        <ele>106</ele>
        <time>2022-02-20T13:53:47Z</time>
      </trkpt>
      <trkpt lat="43.58959" lon="3.69893">
        <ele>103.4</ele>
        <time>2022-02-20T13:53:57Z</time>
      </trkpt>
      <trkpt lat="43.58938" lon="3.6984">
        <ele>95.9</ele>
        <time>2022-02-20T13:54:07Z</time>
      </trkpt>
      <trkpt lat="43.58897" lon="3.69856">
        <ele>93.9</ele>
        <time>2022-02-20T13:54:17Z</time>
      </trkpt>
      <trkpt lat="43.58883" lon="3.69853">
        <ele>90.6</ele>
        <time>2022-02-20T13:54:27Z</time>
      </trkpt>
      <trkpt lat="43.58895" lon="3.69816">
        <ele>89.4</ele>
        <time>2022-02-20T13:54:37Z</time>
      </trkpt>
      <trkpt lat="43.58918" lon="3.69775">
        <ele>85.1</ele>
        <time>2022-02-20T13:54:47Z</time>
      </trkpt>
      <trkpt lat="43.58954" lon="3.69735">
        <ele>81.9</ele>
        <time>2022-02-20T13:54:57Z</time>
      </trkpt>
      <trkpt lat="43.59011" lon="3.69735">
        <ele>78.5</ele>
        <time>2022-02-20T13:55:07Z</time>
      </trkpt>
      <trkpt lat="43.59052" lon="3.6976">
        <ele>79.8</ele>
        <time>2022-02-20T13:55:17Z</time>
      </trkpt>
      <trkpt lat="43.59074" lon="3.69788">
        <ele>82.5</ele>
        <time>2022-02-20T13:55:27Z</time>
      </trkpt>
      <trkpt lat="43.59091" lon="3.69817">
        <ele>83.1</ele>
        <time>2022-02-20T13:55:37Z</time>
      </trkpt>
      <trkpt lat="43.59113" lon="3.69835">
        <ele>86</ele>
        <time>2022-02-20T13:55:47Z</time>
      </trkpt>
      <trkpt lat="43.5913" lon="3.69845">
        <ele>87.7</ele>
        <time>2022-02-20T13:55:57Z</time>
      </trkpt>
      <trkpt lat="43.59148" lon="3.69856">
        <ele>89.3</ele>
        <time>2022-02-20T13:56:07Z</time>
      </trkpt>
      <trkpt lat="43.59163" lon="3.69867">
        <ele>90.1</ele>
        <time>2022-02-20T13:56:17Z</time>
      </trkpt>
      <trkpt lat="43.59179" lon="3.69879">
        <ele>91.4</ele>
        <time>2022-02-20T13:56:27Z</time>
      </trkpt>
      <trkpt lat="43.59198" lon="3.69891">
        <ele>93.1</ele>
        <time>2022-02-20T13:56:37Z</time>
      </trkpt>
      <trkpt lat="43.59218" lon="3.699">
        <ele>94.4</ele>
        <time>2022-02-20T13:56:47Z</time>
      </trkpt>
      <trkpt lat="43.5924" lon="3.69905">
        <ele>95</ele>
        <time>2022-02-20T13:56:57Z</time>
      </trkpt>
      <trkpt lat="43.59261" lon="3.69901">
        <ele>96.2</ele>
        <time>2022-02-20T13:57:07Z</time>
      </trkpt>
      <trkpt lat="43.59276" lon="3.69889">
        <ele>98</ele>
        <time>2022-02-20T13:57:17Z</time>
      </trkpt>
      <trkpt lat="43.59289" lon="3.69874">
        <ele>99.1</ele>
        <time>2022-02-20T13:57:27Z</time>
      </trkpt>
      <trkpt lat="43.59301" lon="3.69857">
        <ele>101.1</ele>
        <time>2022-02-20T13:57:37Z</time>
      </trkpt>
      <trkpt lat="43.5931" lon="3.6984">
        <ele>102.1</ele>
        <time>2022-02-20T13:57:47Z</time>
      </trkpt>
      <trkpt lat="43.59317" lon="3.69822">
        <ele>103.2</ele>
        <time>2022-02-20T13:57:57Z</time>
      </trkpt>
      <trkpt lat="43.59325" lon="3.69799">
        <ele>104.7</ele>
        <time>2022-02-20T13:58:07Z</time>
      </trkpt>
      <trkpt lat="43.59333" lon="3.69777">
        <ele>106.1</ele>
        <time>2022-02-20T13:58:17Z</time>
      </trkpt>
      <trkpt lat="43.59337" lon="3.69751">
        <ele>107.6</ele>
        <time>2022-02-20T13:58:27Z</time>
      </trkpt>
      <trkpt lat="43.59338" lon="3.69726">
        <ele>108.2</ele>
        <time>2022-02-20T13:58:37Z</time>
      </trkpt>
      <trkpt lat="43.59336" lon="3.69704">
        <ele>109.8</ele>
        <time>2022-02-20T13:58:47Z</time>
      </trkpt>
      <trkpt lat="43.59329" lon="3.69681">
        <ele>111</ele>
        <time>2022-02-20T13:58:57Z</time>
      </trkpt>
      <trkpt lat="43.5932" lon="3.69663">
        <ele>112</ele>
        <time>2022-02-20T13:59:07Z</time>
      </trkpt>
      <trkpt lat="43.59308" lon="3.69644">
        <ele>114.4</ele>
        <time>2022-02-20T13:59:17Z</time>
      </trkpt>
      <trkpt lat="43.59296" lon="3.69624">
        <ele>115.5</ele>
        <time>2022-02-20T13:59:27Z</time>
      </trkpt>
      <trkpt lat="43.59286" lon="3.69605">
        <ele>116.8</ele>
        <time>2022-02-20T13:59:37Z</time>
      </trkpt>
      <trkpt lat="43.59279" lon="3.69586">
        <ele>117.9</ele>
        <time>2022-02-20T13:59:47Z</time>
      </trkpt>
      <trkpt lat="43.5927" lon="3.69563">
        <ele>120.2</ele>
        <time>2022-02-20T13:59:57Z</time>
      </trkpt>
      <trkpt lat="43.59264" lon="3.69539">
        <ele>122.4</ele>
        <time>2022-02-20T14:00:07Z</time>
      </trkpt>
      <trkpt lat="43.59263" lon="3.69517">
        <ele>123.8</ele>
        <time>2022-02-20T14:00:17Z</time>
      </trkpt>
      <trkpt lat="43.5926" lon="3.69498">
        <ele>125.1</ele>
        <time>2022-02-20T14:00:27Z</time>
      </trkpt>
      <trkpt lat="43.59257" lon="3.69481">
        <ele>126.4</ele>
        <time>2022-02-20T14:00:37Z</time>
      </trkpt>
      <trkpt lat="43.59254" lon="3.69461">
        <ele>127.2</ele>
        <time>2022-02-20T14:00:47Z</time>
      </trkpt>
      <trkpt lat="43.59253" lon="3.69442">
        <ele>127.7</ele>
        <time>2022-02-20T14:00:57Z</time>
      </trkpt>
      <trkpt lat="43.59256" lon="3.69422">
        <ele>127.5</ele>
        <time>2022-02-20T14:01:07Z</time>
      </trkpt>
      <trkpt lat="43.59254" lon="3.69398">
        <ele>128.4</ele>
        <time>2022-02-20T14:01:17Z</time>
      </trkpt>
      <trkpt lat="43.59241" lon="3.69375">
        <ele>129.6</ele>
        <time>2022-02-20T14:01:27Z</time>
      </trkpt>
      <trkpt lat="43.59229" lon="3.69353">
        <ele>130.4</ele>
        <time>2022-02-20T14:01:37Z</time>
      </trkpt>
      <trkpt lat="43.59218" lon="3.69327">
        <ele>131.6</ele>
        <time>2022-02-20T14:01:47Z</time>
      </trkpt>
      <trkpt lat="43.59213" lon="3.69302">
        <ele>132.2</ele>
        <time>2022-02-20T14:01:57Z</time>
      </trkpt>
      <trkpt lat="43.59204" lon="3.6928">
        <ele>133.6</ele>
        <time>2022-02-20T14:02:07Z</time>
      </trkpt>
      <trkpt lat="43.59181" lon="3.69281">
        <ele>134.5</ele>
        <time>2022-02-20T14:02:17Z</time>
      </trkpt>
      <trkpt lat="43.59164" lon="3.69262">
        <ele>134.4</ele>
        <time>2022-02-20T14:02:27Z</time>
      </trkpt>
      <trkpt lat="43.59146" lon="3.69238">
        <ele>133.8</ele>
        <time>2022-02-20T14:02:37Z</time>
      </trkpt>
      <trkpt lat="43.59117" lon="3.69212">
        <ele>132.2</ele>
        <time>2022-02-20T14:02:47Z</time>
      </trkpt>
      <trkpt lat="43.59092" lon="3.69178">
        <ele>129.9</ele>
        <time>2022-02-20T14:02:57Z</time>
      </trkpt>
      <trkpt lat="43.59073" lon="3.69129">
        <ele>127.9</ele>
        <time>2022-02-20T14:03:07Z</time>
      </trkpt>
      <trkpt lat="43.59053" lon="3.69059">
        <ele>123.8</ele>
        <time>2022-02-20T14:03:17Z</time>
      </trkpt>
      <trkpt lat="43.59009" lon="3.69014">
        <ele>122.5</ele>
        <time>2022-02-20T14:03:27Z</time>
      </trkpt>
      <trkpt lat="43.58967" lon="3.68982">
        <ele>122.8</ele>
        <time>2022-02-20T14:03:37Z</time>
      </trkpt>
      <trkpt lat="43.58935" lon="3.68957">
        <ele>120.9</ele>
        <time>2022-02-20T14:03:47Z</time>
      </trkpt>
      <trkpt lat="43.58898" lon="3.68923">
        <ele>118</ele>
        <time>2022-02-20T14:03:57Z</time>
      </trkpt>
      <trkpt lat="43.58861" lon="3.68863">
        <ele>112.9</ele>
        <time>2022-02-20T14:04:07Z</time>
      </trkpt>
      <trkpt lat="43.58815" lon="3.6879">
        <ele>107.5</ele>
        <time>2022-02-20T14:04:17Z</time>
      </trkpt>
      <trkpt lat="43.58767" lon="3.68702">
        <ele>102.3</ele>
        <time>2022-02-20T14:04:27Z</time>
      </trkpt>
      <trkpt lat="43.58763" lon="3.68631">
        <ele>105.8</ele>
        <time>2022-02-20T14:04:37Z</time>
      </trkpt>
      <trkpt lat="43.58778" lon="3.68575">
        <ele>105.8</ele>
        <time>2022-02-20T14:04:47Z</time>
      </trkpt>
      <trkpt lat="43.58786" lon="3.68528">
        <ele>108</ele>
        <time>2022-02-20T14:04:57Z</time>
      </trkpt>
      <trkpt lat="43.58789" lon="3.6849">
        <ele>109.1</ele>
        <time>2022-02-20T14:05:07Z</time>
      </trkpt>
      <trkpt lat="43.58788" lon="3.68447">
        <ele>109.4</ele>
        <time>2022-02-20T14:05:17Z</time>
      </trkpt>
      <trkpt lat="43.58787" lon="3.68409">
        <ele>110</ele>
        <time>2022-02-20T14:05:27Z</time>
      </trkpt>
      <trkpt lat="43.58774" lon="3.6843">
        <ele>109.6</ele>
        <time>2022-02-20T14:05:37Z</time>
      </trkpt>
      <trkpt lat="43.58761" lon="3.68461">
        <ele>110.7</ele>
        <time>2022-02-20T14:05:47Z</time>
      </trkpt>
      <trkpt lat="43.58743" lon="3.68479">
        <ele>111.5</ele>
        <time>2022-02-20T14:05:57Z</time>
      </trkpt>
      <trkpt lat="43.58722" lon="3.68478">
        <ele>113.2</ele>
        <time>2022-02-20T14:06:07Z</time>
      </trkpt>
      <trkpt lat="43.58704" lon="3.6847">
        <ele>114.5</ele>
        <time>2022-02-20T14:06:17Z</time>
      </trkpt>
      <trkpt lat="43.58685" lon="3.68463">
        <ele>116.8</ele>
        <time>2022-02-20T14:06:27Z</time>
      </trkpt>
      <trkpt lat="43.58675" lon="3.68485">
        <ele>117.6</ele>
        <time>2022-02-20T14:06:37Z</time>
      </trkpt>
      <trkpt lat="43.58686" lon="3.68504">
        <ele>118.4</ele>
        <time>2022-02-20T14:06:47Z</time>
      </trkpt>
      <trkpt lat="43.58702" lon="3.68537">
        <ele>118.7</ele>
        <time>2022-02-20T14:06:57Z</time>
      </trkpt>
      <trkpt lat="43.58682" lon="3.68589">
        <ele>122.1</ele>
        <time>2022-02-20T14:07:07Z</time>
      </trkpt>
      <trkpt lat="43.5866" lon="3.6862">
        <ele>123.7</ele>
        <time>2022-02-20T14:07:17Z</time>
      </trkpt>
      <trkpt lat="43.58675" lon="3.68664">
        <ele>123.8</ele>
        <time>2022-02-20T14:07:27Z</time>
      </trkpt>
      <trkpt lat="43.58682" lon="3.68691">
        <ele>125.9</ele>
        <time>2022-02-20T14:07:37Z</time>
      </trkpt>
      <trkpt lat="43.58678" lon="3.68712">
        <ele>128.2</ele>
        <time>2022-02-20T14:07:47Z</time>
      </trkpt>
      <trkpt lat="43.58673" lon="3.68736">
        <ele>130.4</ele>
        <time>2022-02-20T14:07:57Z</time>
      </trkpt>
      <trkpt lat="43.5867" lon="3.68761">
        <ele>132</ele>
        <time>2022-02-20T14:08:07Z</time>
      </trkpt>
      <trkpt lat="43.58663" lon="3.68792">
        <ele>132.3</ele>
        <time>2022-02-20T14:08:17Z</time>
      </trkpt>
      <trkpt lat="43.58645" lon="3.68806">
        <ele>133.8</ele>
        <time>2022-02-20T14:08:27Z</time>
      </trkpt>
      <trkpt lat="43.58625" lon="3.68822">
        <ele>136.6</ele>
        <time>2022-02-20T14:08:37Z</time>
      </trkpt>
      <trkpt lat="43.58624" lon="3.68855">
        <ele>138.6</ele>
        <time>2022-02-20T14:08:47Z</time>
      </trkpt>
      <trkpt lat="43.58635" lon="3.68876">
        <ele>139.9</ele>
        <time>2022-02-20T14:08:57Z</time>
      </trkpt>
      <trkpt lat="43.58656" lon="3.68881">
        <ele>140</ele>
        <time>2022-02-20T14:09:07Z</time>
      </trkpt>
      <trkpt lat="43.58668" lon="3.68899">
        <ele>141.5</ele>
        <time>2022-02-20T14:09:17Z</time>
      </trkpt>
      <trkpt lat="43.58666" lon="3.68925">
        <ele>143.1</ele>
        <time>2022-02-20T14:09:27Z</time>
      </trkpt>
      <trkpt lat="43.58657" lon="3.68951">
        <ele>143.9</ele>
        <time>2022-02-20T14:09:37Z</time>
      </trkpt>
      <trkpt lat="43.58643" lon="3.68973">
        <ele>145.4</ele>
        <time>2022-02-20T14:09:47Z</time>
      </trkpt>
      <trkpt lat="43.58621" lon="3.68987">
        <ele>146.8</ele>
        <time>2022-02-20T14:09:57Z</time>
      </trkpt>
      <trkpt lat="43.58598" lon="3.69004">
        <ele>147.3</ele>
        <time>2022-02-20T14:10:07Z</time>
      </trkpt>
      <trkpt lat="43.58574" lon="3.69019">
        <ele>147.7</ele>
        <time>2022-02-20T14:10:17Z</time>
      </trkpt>
      <trkpt lat="43.5855" lon="3.69037">
        <ele>147.5</ele>
        <time>2022-02-20T14:10:27Z</time>
      </trkpt>
      <trkpt lat="43.58526" lon="3.69061">
        <ele>146.7</ele>
        <time>2022-02-20T14:10:37Z</time>
      </trkpt>
      <trkpt lat="43.58499" lon="3.69092">
        <ele>144.9</ele>
        <time>2022-02-20T14:10:47Z</time>
      </trkpt>
      <trkpt lat="43.58481" lon="3.69137">
        <ele>142</ele>
        <time>2022-02-20T14:10:57Z</time>
      </trkpt>
      <trkpt lat="43.58468" lon="3.69187">
        <ele>139.4</ele>
        <time>2022-02-20T14:11:07Z</time>
      </trkpt>
      <trkpt lat="43.58456" lon="3.69235">
        <ele>136.7</ele>
        <time>2022-02-20T14:11:17Z</time>
      </trkpt>
      <trkpt lat="43.58434" lon="3.69277">
        <ele>134.4</ele>
        <time>2022-02-20T14:11:27Z</time>
      </trkpt>
      <trkpt lat="43.58409" lon="3.69312">
        <ele>133.2</ele>
        <time>2022-02-20T14:11:37Z</time>
      </trkpt>
      <trkpt lat="43.58379" lon="3.6934">
        <ele>133</ele>
        <time>2022-02-20T14:11:47Z</time>
      </trkpt>
      <trkpt lat="43.58351" lon="3.69364">
        <ele>131.3</ele>
        <time>2022-02-20T14:11:57Z</time>
      </trkpt>
      <trkpt lat="43.58321" lon="3.6939">
        <ele>128.9</ele>
        <time>2022-02-20T14:12:07Z</time>
      </trkpt>
      <trkpt lat="43.58302" lon="3.69437">
        <ele>125.2</ele>
        <time>2022-02-20T14:12:17Z</time>
      </trkpt>
      <trkpt lat="43.58282" lon="3.69498">
        <ele>120.9</ele>
        <time>2022-02-20T14:12:27Z</time>
      </trkpt>
      <trkpt lat="43.58241" lon="3.69575">
        <ele>118</ele>
        <time>2022-02-20T14:12:37Z</time>
      </trkpt>
      <trkpt lat="43.58194" lon="3.6965">
        <ele>115.9</ele>
        <time>2022-02-20T14:12:47Z</time>
      </trkpt>
      <trkpt lat="43.58154" lon="3.69673">
        <ele>117.3</ele>
        <time>2022-02-20T14:12:57Z</time>
      </trkpt>
      <trkpt lat="43.58114" lon="3.69698">
        <ele>118.3</ele>
        <time>2022-02-20T14:13:07Z</time>
      </trkpt>
      <trkpt lat="43.58086" lon="3.69714">
        <ele>119.7</ele>
        <time>2022-02-20T14:13:17Z</time>
      </trkpt>
      <trkpt lat="43.58054" lon="3.69733">
        <ele>119</ele>
        <time>2022-02-20T14:13:27Z</time>
      </trkpt>
      <trkpt lat="43.58025" lon="3.69764">
        <ele>119.8</ele>
        <time>2022-02-20T14:13:37Z</time>
      </trkpt>
      <trkpt lat="43.57999" lon="3.69795">
        <ele>121.5</ele>
        <time>2022-02-20T14:13:47Z</time>
      </trkpt>
      <trkpt lat="43.57979" lon="3.69827">
        <ele>122.5</ele>
        <time>2022-02-20T14:13:57Z</time>
      </trkpt>
      <trkpt lat="43.5796" lon="3.69865">
        <ele>122.8</ele>
        <time>2022-02-20T14:14:07Z</time>
      </trkpt>
      <trkpt lat="43.57937" lon="3.69898">
        <ele>123.4</ele>
        <time>2022-02-20T14:14:17Z</time>
      </trkpt>
      <trkpt lat="43.57908" lon="3.6992">
        <ele>122.7</ele>
        <time>2022-02-20T14:14:27Z</time>
      </trkpt>
      <trkpt lat="43.57872" lon="3.69933">
        <ele>121</ele>
        <time>2022-02-20T14:14:37Z</time>
      </trkpt>
      <trkpt lat="43.57837" lon="3.69946">
        <ele>118.3</ele>
        <time>2022-02-20T14:14:47Z</time>
      </trkpt>
      <trkpt lat="43.57794" lon="3.69953">
        <ele>114.9</ele>
        <time>2022-02-20T14:14:57Z</time>
      </trkpt>
      <trkpt lat="43.5775" lon="3.69963">
        <ele>112</ele>
        <time>2022-02-20T14:15:07Z</time>
      </trkpt>
      <trkpt lat="43.57702" lon="3.69961">
        <ele>108.8</ele>
        <time>2022-02-20T14:15:17Z</time>
      </trkpt>
      <trkpt lat="43.57649" lon="3.69966">
        <ele>105.8</ele>
        <time>2022-02-20T14:15:27Z</time>
      </trkpt>
      <trkpt lat="43.57595" lon="3.69985">
        <ele>105</ele>
        <time>2022-02-20T14:15:37Z</time>
      </trkpt>
      <trkpt lat="43.57551" lon="3.70015">
        <ele>104.8</ele>
        <time>2022-02-20T14:15:47Z</time>
      </trkpt>
      <trkpt lat="43.57509" lon="3.70037">
        <ele>105.9</ele>
        <time>2022-02-20T14:15:57Z</time>
      </trkpt>
      <trkpt lat="43.57468" lon="3.70034">
        <ele>107.7</ele>
        <time>2022-02-20T14:16:07Z</time>
      </trkpt>
      <trkpt lat="43.5743" lon="3.70043">
        <ele>108.4</ele>
        <time>2022-02-20T14:16:17Z</time>
      </trkpt>
      <trkpt lat="43.57392" lon="3.7006">
        <ele>109.6</ele>
        <time>2022-02-20T14:16:27Z</time>
      </trkpt>
      <trkpt lat="43.57357" lon="3.70081">
        <ele>111.2</ele>
        <time>2022-02-20T14:16:37Z</time>
      </trkpt>
      <trkpt lat="43.57325" lon="3.70098">
        <ele>112.6</ele>
        <time>2022-02-20T14:16:47Z</time>
      </trkpt>
      <trkpt lat="43.57293" lon="3.70114">
        <ele>113.9</ele>
        <time>2022-02-20T14:16:57Z</time>
      </trkpt>
      <trkpt lat="43.57268" lon="3.70148">
        <ele>113.6</ele>
        <time>2022-02-20T14:17:07Z</time>
      </trkpt>
      <trkpt lat="43.57235" lon="3.70185">
        <ele>111.3</ele>
        <time>2022-02-20T14:17:17Z</time>
      </trkpt>
      <trkpt lat="43.57198" lon="3.70239">
        <ele>107.7</ele>
        <time>2022-02-20T14:17:27Z</time>
      </trkpt>
      <trkpt lat="43.57157" lon="3.70319">
        <ele>102.1</ele>
        <time>2022-02-20T14:17:37Z</time>
      </trkpt>
      <trkpt lat="43.57126" lon="3.70411">
        <ele>100.7</ele>
        <time>2022-02-20T14:17:47Z</time>
      </trkpt>
      <trkpt lat="43.5713" lon="3.70432">
        <ele>100.2</ele>
        <time>2022-02-20T14:18:27Z</time>
      </trkpt>
      <trkpt lat="43.57137" lon="3.70436">
        <ele>99.7</ele>
        <time>2022-02-20T14:18:47Z</time>
      </trkpt>
      <trkpt lat="43.5714" lon="3.70457">
        <ele>98.2</ele>
        <time>2022-02-20T14:18:57Z</time>
      </trkpt>
      <trkpt lat="43.57135" lon="3.70473">
        <ele>97.2</ele>
        <time>2022-02-20T14:19:07Z</time>
      </trkpt>
      <trkpt lat="43.57124" lon="3.70511">
        <ele>92.3</ele>
        <time>2022-02-20T14:19:17Z</time>
      </trkpt>
      <trkpt lat="43.57113" lon="3.70548">
        <ele>85.7</ele>
        <time>2022-02-20T14:19:27Z</time>
      </trkpt>
      <trkpt lat="43.57103" lon="3.70583">
        <ele>81.1</ele>
        <time>2022-02-20T14:19:37Z</time>
      </trkpt>
      <trkpt lat="43.57089" lon="3.70615">
        <ele>77.6</ele>
        <time>2022-02-20T14:19:47Z</time>
      </trkpt>
      <trkpt lat="43.5708" lon="3.70646">
        <ele>72.4</ele>
        <time>2022-02-20T14:19:57Z</time>
      </trkpt>
      <trkpt lat="43.57063" lon="3.7066">
        <ele>70.3</ele>
        <time>2022-02-20T14:20:07Z</time>
      </trkpt>
      <trkpt lat="43.57044" lon="3.7068">
        <ele>68.6</ele>
        <time>2022-02-20T14:22:57Z</time>
      </trkpt>
      <trkpt lat="43.57018" lon="3.70704">
        <ele>68.4</ele>
        <time>2022-02-20T14:23:17Z</time>
      </trkpt>
      <trkpt lat="43.56997" lon="3.70731">
        <ele>66.1</ele>
        <time>2022-02-20T14:23:37Z</time>
      </trkpt>
      <trkpt lat="43.56971" lon="3.7076">
        <ele>64.4</ele>
        <time>2022-02-20T14:23:47Z</time>
      </trkpt>
      <trkpt lat="43.56941" lon="3.70785">
        <ele>62.5</ele>
        <time>2022-02-20T14:23:57Z</time>
      </trkpt>
      <trkpt lat="43.56902" lon="3.7081">
        <ele>62.4</ele>
        <time>2022-02-20T14:24:07Z</time>
      </trkpt>
      <trkpt lat="43.56864" lon="3.70846">
        <ele>61.4</ele>
        <time>2022-02-20T14:24:17Z</time>
      </trkpt>
      <trkpt lat="43.56828" lon="3.70895">
        <ele>59.8</ele>
        <time>2022-02-20T14:24:27Z</time>
      </trkpt>
      <trkpt lat="43.56792" lon="3.70943">
        <ele>59.2</ele>
        <time>2022-02-20T14:24:37Z</time>
      </trkpt>
      <trkpt lat="43.56757" lon="3.7098">
        <ele>58.9</ele>
        <time>2022-02-20T14:24:47Z</time>
      </trkpt>
      <trkpt lat="43.56722" lon="3.71016">
        <ele>57.7</ele>
        <time>2022-02-20T14:24:57Z</time>
      </trkpt>
      <trkpt lat="43.56683" lon="3.71049">
        <ele>57.2</ele>
        <time>2022-02-20T14:25:07Z</time>
      </trkpt>
      <trkpt lat="43.56646" lon="3.71086">
        <ele>55.9</ele>
        <time>2022-02-20T14:25:17Z</time>
      </trkpt>
      <trkpt lat="43.5661" lon="3.71118">
        <ele>55</ele>
        <time>2022-02-20T14:25:27Z</time>
      </trkpt>
      <trkpt lat="43.56574" lon="3.71149">
        <ele>55.1</ele>
        <time>2022-02-20T14:25:37Z</time>
      </trkpt>
      <trkpt lat="43.56542" lon="3.71195">
        <ele>50.9</ele>
        <time>2022-02-20T14:25:47Z</time>
      </trkpt>
      <trkpt lat="43.56518" lon="3.71244">
        <ele>49.4</ele>
        <time>2022-02-20T14:25:57Z</time>
      </trkpt>
      <trkpt lat="43.56494" lon="3.71269">
        <ele>49.2</ele>
        <time>2022-02-20T14:26:07Z</time>
      </trkpt>
      <trkpt lat="43.56466" lon="3.71288">
        <ele>49.6</ele>
        <time>2022-02-20T14:26:17Z</time>
      </trkpt>
      <trkpt lat="43.56428" lon="3.71289">
        <ele>49.5</ele>
        <time>2022-02-20T14:26:27Z</time>
      </trkpt>
      <trkpt lat="43.56387" lon="3.71304">
        <ele>47.2</ele>
        <time>2022-02-20T14:26:37Z</time>
      </trkpt>
      <trkpt lat="43.56339" lon="3.71317">
        <ele>45.2</ele>
        <time>2022-02-20T14:26:47Z</time>
      </trkpt>
      <trkpt lat="43.56301" lon="3.71349">
        <ele>46.5</ele>
        <time>2022-02-20T14:26:57Z</time>
      </trkpt>
      <trkpt lat="43.56263" lon="3.71362">
        <ele>45.6</ele>
        <time>2022-02-20T14:27:07Z</time>
      </trkpt>
      <trkpt lat="43.56226" lon="3.71356">
        <ele>43.9</ele>
        <time>2022-02-20T14:27:17Z</time>
      </trkpt>
      <trkpt lat="43.56193" lon="3.7136">
        <ele>43.8</ele>
        <time>2022-02-20T14:27:27Z</time>
      </trkpt>
      <trkpt lat="43.56168" lon="3.71388">
        <ele>43.1</ele>
        <time>2022-02-20T14:27:37Z</time>
      </trkpt>
      <trkpt lat="43.56154" lon="3.71434">
        <ele>43.6</ele>
        <time>2022-02-20T14:27:47Z</time>
      </trkpt>
      <trkpt lat="43.56138" lon="3.71477">
        <ele>42.1</ele>
        <time>2022-02-20T14:29:17Z</time>
      </trkpt>
      <trkpt lat="43.56124" lon="3.71512">
        <ele>43.1</ele>
        <time>2022-02-20T14:29:37Z</time>
      </trkpt>
      <trkpt lat="43.56112" lon="3.7155">
        <ele>44</ele>
        <time>2022-02-20T14:29:47Z</time>
      </trkpt>
      <trkpt lat="43.56102" lon="3.7159">
        <ele>43.2</ele>
        <time>2022-02-20T14:29:57Z</time>
      </trkpt>
      <trkpt lat="43.56086" lon="3.71616">
        <ele>43.1</ele>
        <time>2022-02-20T14:30:07Z</time>
      </trkpt>
      <trkpt lat="43.56067" lon="3.71646">
        <ele>43.2</ele>
        <time>2022-02-20T14:30:17Z</time>
      </trkpt>
      <trkpt lat="43.56051" lon="3.71673">
        <ele>43</ele>
        <time>2022-02-20T14:30:27Z</time>
      </trkpt>
      <trkpt lat="43.56036" lon="3.71695">
        <ele>43</ele>
        <time>2022-02-20T14:30:37Z</time>
      </trkpt>
      <trkpt lat="43.56022" lon="3.71719">
        <ele>43</ele>
        <time>2022-02-20T14:30:47Z</time>
      </trkpt>
      <trkpt lat="43.56006" lon="3.71743">
        <ele>42.5</ele>
        <time>2022-02-20T14:30:57Z</time>
      </trkpt>
      <trkpt lat="43.55986" lon="3.71768">
        <ele>42.4</ele>
        <time>2022-02-20T14:31:07Z</time>
      </trkpt>
      <trkpt lat="43.55968" lon="3.71793">
        <ele>42</ele>
        <time>2022-02-20T14:31:17Z</time>
      </trkpt>
      <trkpt lat="43.55951" lon="3.71816">
        <ele>42.2</ele>
        <time>2022-02-20T14:31:27Z</time>
      </trkpt>
      <trkpt lat="43.55937" lon="3.71847">
        <ele>41.3</ele>
        <time>2022-02-20T14:31:37Z</time>
      </trkpt>
      <trkpt lat="43.55926" lon="3.71879">
        <ele>41.5</ele>
        <time>2022-02-20T14:31:47Z</time>
      </trkpt>
      <trkpt lat="43.55912" lon="3.71913">
        <ele>42.8</ele>
        <time>2022-02-20T14:31:57Z</time>
      </trkpt>
      <trkpt lat="43.5589" lon="3.7195">
        <ele>46.4</ele>
        <time>2022-02-20T14:32:07Z</time>
      </trkpt>
      <trkpt lat="43.55891" lon="3.7197">
        <ele>48.3</ele>
        <time>2022-02-20T14:32:17Z</time>
      </trkpt>
      <trkpt lat="43.55904" lon="3.71985">
        <ele>47.2</ele>
        <time>2022-02-20T14:32:27Z</time>
      </trkpt>
      <trkpt lat="43.55919" lon="3.7201">
        <ele>48.1</ele>
        <time>2022-02-20T14:32:37Z</time>
      </trkpt>
      <trkpt lat="43.55935" lon="3.72037">
        <ele>47.1</ele>
        <time>2022-02-20T14:32:47Z</time>
      </trkpt>
      <trkpt lat="43.55936" lon="3.72069">
        <ele>49.3</ele>
        <time>2022-02-20T14:32:57Z</time>
      </trkpt>
      <trkpt lat="43.55933" lon="3.72107">
        <ele>49.4</ele>
        <time>2022-02-20T14:33:07Z</time>
      </trkpt>
      <trkpt lat="43.55928" lon="3.72136">
        <ele>49.6</ele>
        <time>2022-02-20T14:33:17Z</time>
      </trkpt>
      <trkpt lat="43.55922" lon="3.72158">
        <ele>49.8</ele>
        <time>2022-02-20T14:33:27Z</time>
      </trkpt>
      <trkpt lat="43.55917" lon="3.72199">
        <ele>49</ele>
        <time>2022-02-20T14:33:37Z</time>
      </trkpt>
      <trkpt lat="43.55908" lon="3.72238">
        <ele>49.2</ele>
        <time>2022-02-20T14:33:47Z</time>
      </trkpt>
      <trkpt lat="43.55911" lon="3.72278">
        <ele>48.4</ele>
        <time>2022-02-20T14:33:57Z</time>
      </trkpt>
      <trkpt lat="43.55922" lon="3.72328">
        <ele>48</ele>
        <time>2022-02-20T14:34:07Z</time>
      </trkpt>
      <trkpt lat="43.55935" lon="3.72386">
        <ele>47.3</ele>
        <time>2022-02-20T14:34:17Z</time>
      </trkpt>
      <trkpt lat="43.55951" lon="3.72456">
        <ele>45.1</ele>
        <time>2022-02-20T14:34:27Z</time>
      </trkpt>
      <trkpt lat="43.55962" lon="3.72494">
        <ele>43.7</ele>
        <time>2022-02-20T14:34:37Z</time>
      </trkpt>
      <trkpt lat="43.5598" lon="3.7253">
        <ele>43.2</ele>
        <time>2022-02-20T14:34:47Z</time>
      </trkpt>
      <trkpt lat="43.55996" lon="3.72583">
        <ele>43.1</ele>
        <time>2022-02-20T14:34:57Z</time>
      </trkpt>
      <trkpt lat="43.56012" lon="3.72636">
        <ele>43</ele>
        <time>2022-02-20T14:35:07Z</time>
      </trkpt>
      <trkpt lat="43.56027" lon="3.72698">
        <ele>42.1</ele>
        <time>2022-02-20T14:35:17Z</time>
      </trkpt>
      <trkpt lat="43.56041" lon="3.72761">
        <ele>40.8</ele>
        <time>2022-02-20T14:35:27Z</time>
      </trkpt>
      <trkpt lat="43.56052" lon="3.72812">
        <ele>41.3</ele>
        <time>2022-02-20T14:35:37Z</time>
      </trkpt>
      <trkpt lat="43.56075" lon="3.72852">
        <ele>39.7</ele>
        <time>2022-02-20T14:35:47Z</time>
      </trkpt>
      <trkpt lat="43.56101" lon="3.72882">
        <ele>37</ele>
        <time>2022-02-20T14:35:57Z</time>
      </trkpt>
      <trkpt lat="43.56139" lon="3.72904">
        <ele>38.5</ele>
        <time>2022-02-20T14:36:07Z</time>
      </trkpt>
      <trkpt lat="43.56175" lon="3.72902">
        <ele>40.5</ele>
        <time>2022-02-20T14:36:17Z</time>
      </trkpt>
      <trkpt lat="43.56195" lon="3.72914">
        <ele>41.1</ele>
        <time>2022-02-20T14:36:27Z</time>
      </trkpt>
      <trkpt lat="43.56222" lon="3.72915">
        <ele>43</ele>
        <time>2022-02-20T14:36:37Z</time>
      </trkpt>
      <trkpt lat="43.56252" lon="3.72924">
        <ele>43.9</ele>
        <time>2022-02-20T14:36:47Z</time>
      </trkpt>
      <trkpt lat="43.56286" lon="3.7294">
        <ele>45.8</ele>
        <time>2022-02-20T14:36:57Z</time>
      </trkpt>
      <trkpt lat="43.56317" lon="3.72955">
        <ele>47.4</ele>
        <time>2022-02-20T14:37:07Z</time>
      </trkpt>
      <trkpt lat="43.56346" lon="3.72972">
        <ele>48.9</ele>
        <time>2022-02-20T14:37:17Z</time>
      </trkpt>
      <trkpt lat="43.56377" lon="3.72974">
        <ele>51.1</ele>
        <time>2022-02-20T14:37:27Z</time>
      </trkpt>
      <trkpt lat="43.56405" lon="3.72989">
        <ele>51.5</ele>
        <time>2022-02-20T14:37:37Z</time>
      </trkpt>
      <trkpt lat="43.56431" lon="3.73009">
        <ele>51.7</ele>
        <time>2022-02-20T14:37:47Z</time>
      </trkpt>
      <trkpt lat="43.5646" lon="3.73035">
        <ele>51.7</ele>
        <time>2022-02-20T14:37:57Z</time>
      </trkpt>
      <trkpt lat="43.56491" lon="3.73068">
        <ele>51.4</ele>
        <time>2022-02-20T14:38:07Z</time>
      </trkpt>
      <trkpt lat="43.5652" lon="3.73104">
        <ele>50.8</ele>
        <time>2022-02-20T14:38:17Z</time>
      </trkpt>
      <trkpt lat="43.56542" lon="3.73134">
        <ele>50.5</ele>
        <time>2022-02-20T14:38:27Z</time>
      </trkpt>
      <trkpt lat="43.56564" lon="3.73165">
        <ele>50.3</ele>
        <time>2022-02-20T14:38:37Z</time>
      </trkpt>
      <trkpt lat="43.56591" lon="3.73201">
        <ele>50.1</ele>
        <time>2022-02-20T14:38:47Z</time>
      </trkpt>
      <trkpt lat="43.56619" lon="3.73212">
        <ele>50.7</ele>
        <time>2022-02-20T14:38:57Z</time>
      </trkpt>
      <trkpt lat="43.56637" lon="3.73189">
        <ele>51.1</ele>
        <time>2022-02-20T14:39:07Z</time>
      </trkpt>
      <trkpt lat="43.56644" lon="3.7315">
        <ele>52</ele>
        <time>2022-02-20T14:39:17Z</time>
      </trkpt>
      <trkpt lat="43.56641" lon="3.73117">
        <ele>52.1</ele>
        <time>2022-02-20T14:39:27Z</time>
      </trkpt>
      <trkpt lat="43.56644" lon="3.73078">
        <ele>52.2</ele>
        <time>2022-02-20T14:39:37Z</time>
      </trkpt>
      <trkpt lat="43.56647" lon="3.73036">
        <ele>52.3</ele>
        <time>2022-02-20T14:39:47Z</time>
      </trkpt>
      <trkpt lat="43.5666" lon="3.72996">
        <ele>53</ele>
        <time>2022-02-20T14:39:57Z</time>
      </trkpt>
      <trkpt lat="43.5668" lon="3.7296">
        <ele>53.9</ele>
        <time>2022-02-20T14:40:07Z</time>
      </trkpt>
      <trkpt lat="43.567" lon="3.7293">
        <ele>55.2</ele>
        <time>2022-02-20T14:40:17Z</time>
      </trkpt>
      <trkpt lat="43.5671" lon="3.72896">
        <ele>55.6</ele>
        <time>2022-02-20T14:40:27Z</time>
      </trkpt>
      <trkpt lat="43.56718" lon="3.72869">
        <ele>55.8</ele>
        <time>2022-02-20T14:40:37Z</time>
      </trkpt>
      <trkpt lat="43.56722" lon="3.72839">
        <ele>56</ele>
        <time>2022-02-20T14:40:47Z</time>
      </trkpt>
      <trkpt lat="43.56727" lon="3.72801">
        <ele>56.2</ele>
        <time>2022-02-20T14:40:57Z</time>
      </trkpt>
      <trkpt lat="43.56721" lon="3.72758">
        <ele>56.7</ele>
        <time>2022-02-20T14:41:07Z</time>
      </trkpt>
      <trkpt lat="43.56744" lon="3.72751">
        <ele>57.7</ele>
        <time>2022-02-20T14:41:17Z</time>
      </trkpt>
      <trkpt lat="43.56766" lon="3.72775">
        <ele>58.8</ele>
        <time>2022-02-20T14:41:27Z</time>
      </trkpt>
      <trkpt lat="43.56785" lon="3.72799">
        <ele>59.7</ele>
        <time>2022-02-20T14:41:37Z</time>
      </trkpt>
      <trkpt lat="43.56804" lon="3.72827">
        <ele>59.4</ele>
        <time>2022-02-20T14:41:47Z</time>
      </trkpt>
      <trkpt lat="43.56822" lon="3.72855">
        <ele>60.2</ele>
        <time>2022-02-20T14:41:57Z</time>
      </trkpt>
      <trkpt lat="43.56843" lon="3.7288">
        <ele>61.3</ele>
        <time>2022-02-20T14:42:07Z</time>
      </trkpt>
      <trkpt lat="43.56863" lon="3.72905">
        <ele>62.1</ele>
        <time>2022-02-20T14:42:17Z</time>
      </trkpt>
      <trkpt lat="43.56881" lon="3.7294">
        <ele>62.8</ele>
        <time>2022-02-20T14:42:27Z</time>
      </trkpt>
      <trkpt lat="43.569" lon="3.72972">
        <ele>63.4</ele>
        <time>2022-02-20T14:42:37Z</time>
      </trkpt>
      <trkpt lat="43.56918" lon="3.73002">
        <ele>63</ele>
        <time>2022-02-20T14:42:47Z</time>
      </trkpt>
      <trkpt lat="43.56936" lon="3.7303">
        <ele>62.7</ele>
        <time>2022-02-20T14:42:57Z</time>
      </trkpt>
      <trkpt lat="43.56954" lon="3.7306">
        <ele>63.5</ele>
        <time>2022-02-20T14:43:07Z</time>
      </trkpt>
      <trkpt lat="43.56974" lon="3.73095">
        <ele>64.2</ele>
        <time>2022-02-20T14:43:17Z</time>
      </trkpt>
      <trkpt lat="43.56997" lon="3.73133">
        <ele>65.1</ele>
        <time>2022-02-20T14:43:27Z</time>
      </trkpt>
      <trkpt lat="43.57023" lon="3.73173">
        <ele>65.6</ele>
        <time>2022-02-20T14:43:37Z</time>
      </trkpt>
      <trkpt lat="43.57048" lon="3.73218">
        <ele>65</ele>
        <time>2022-02-20T14:43:47Z</time>
      </trkpt>
      <trkpt lat="43.57077" lon="3.73265">
        <ele>64.6</ele>
        <time>2022-02-20T14:43:57Z</time>
      </trkpt>
      <trkpt lat="43.57106" lon="3.73321">
        <ele>63.6</ele>
        <time>2022-02-20T14:44:07Z</time>
      </trkpt>
      <trkpt lat="43.57138" lon="3.73373">
        <ele>63.5</ele>
        <time>2022-02-20T14:44:17Z</time>
      </trkpt>
      <trkpt lat="43.57163" lon="3.73418">
        <ele>61.9</ele>
        <time>2022-02-20T14:44:27Z</time>
      </trkpt>
      <trkpt lat="43.57184" lon="3.73458">
        <ele>59.9</ele>
        <time>2022-02-20T14:44:37Z</time>
      </trkpt>
      <trkpt lat="43.57206" lon="3.73497">
        <ele>57.6</ele>
        <time>2022-02-20T14:44:47Z</time>
      </trkpt>
      <trkpt lat="43.57232" lon="3.73539">
        <ele>61.1</ele>
        <time>2022-02-20T14:44:57Z</time>
      </trkpt>
      <trkpt lat="43.57255" lon="3.73588">
        <ele>62.2</ele>
        <time>2022-02-20T14:45:07Z</time>
      </trkpt>
      <trkpt lat="43.57283" lon="3.73638">
        <ele>62.2</ele>
        <time>2022-02-20T14:45:17Z</time>
      </trkpt>
      <trkpt lat="43.57309" lon="3.73687">
        <ele>62.5</ele>
        <time>2022-02-20T14:45:27Z</time>
      </trkpt>
      <trkpt lat="43.57336" lon="3.73734">
        <ele>62.8</ele>
        <time>2022-02-20T14:45:37Z</time>
      </trkpt>
      <trkpt lat="43.57363" lon="3.73782">
        <ele>61.8</ele>
        <time>2022-02-20T14:45:47Z</time>
      </trkpt>
      <trkpt lat="43.57387" lon="3.73823">
        <ele>61.2</ele>
        <time>2022-02-20T14:45:57Z</time>
      </trkpt>
      <trkpt lat="43.57409" lon="3.73865">
        <ele>61.3</ele>
        <time>2022-02-20T14:46:07Z</time>
      </trkpt>
      <trkpt lat="43.57431" lon="3.73905">
        <ele>61.2</ele>
        <time>2022-02-20T14:46:17Z</time>
      </trkpt>
      <trkpt lat="43.57457" lon="3.73949">
        <ele>61.7</ele>
        <time>2022-02-20T14:46:27Z</time>
      </trkpt>
      <trkpt lat="43.57487" lon="3.73991">
        <ele>61.9</ele>
        <time>2022-02-20T14:46:37Z</time>
      </trkpt>
      <trkpt lat="43.57519" lon="3.7403">
        <ele>62</ele>
        <time>2022-02-20T14:46:47Z</time>
      </trkpt>
      <trkpt lat="43.57553" lon="3.74066">
        <ele>62.5</ele>
        <time>2022-02-20T14:46:57Z</time>
      </trkpt>
      <trkpt lat="43.57587" lon="3.74104">
        <ele>62.7</ele>
        <time>2022-02-20T14:47:07Z</time>
      </trkpt>
      <trkpt lat="43.57621" lon="3.7414">
        <ele>63</ele>
        <time>2022-02-20T14:47:17Z</time>
      </trkpt>
      <trkpt lat="43.57648" lon="3.74171">
        <ele>61.6</ele>
        <time>2022-02-20T14:47:27Z</time>
      </trkpt>
      <trkpt lat="43.57676" lon="3.74202">
        <ele>59.9</ele>
        <time>2022-02-20T14:47:37Z</time>
      </trkpt>
      <trkpt lat="43.57706" lon="3.74234">
        <ele>57.9</ele>
        <time>2022-02-20T14:47:47Z</time>
      </trkpt>
      <trkpt lat="43.57739" lon="3.74271">
        <ele>57.1</ele>
        <time>2022-02-20T14:47:57Z</time>
      </trkpt>
      <trkpt lat="43.57774" lon="3.74313">
        <ele>58.1</ele>
        <time>2022-02-20T14:48:07Z</time>
      </trkpt>
      <trkpt lat="43.57807" lon="3.74353">
        <ele>60.3</ele>
        <time>2022-02-20T14:48:17Z</time>
      </trkpt>
      <trkpt lat="43.57836" lon="3.74397">
        <ele>62.9</ele>
        <time>2022-02-20T14:48:27Z</time>
      </trkpt>
      <trkpt lat="43.57864" lon="3.74446">
        <ele>61.7</ele>
        <time>2022-02-20T14:48:37Z</time>
      </trkpt>
      <trkpt lat="43.57889" lon="3.74498">
        <ele>61.3</ele>
        <time>2022-02-20T14:48:47Z</time>
      </trkpt>
      <trkpt lat="43.57911" lon="3.74548">
        <ele>60.6</ele>
        <time>2022-02-20T14:48:57Z</time>
      </trkpt>
      <trkpt lat="43.57923" lon="3.74575">
        <ele>60.1</ele>
        <time>2022-02-20T14:49:07Z</time>
      </trkpt>
      <trkpt lat="43.57936" lon="3.74617">
        <ele>59</ele>
        <time>2022-02-20T14:49:27Z</time>
      </trkpt>
      <trkpt lat="43.57953" lon="3.74659">
        <ele>57.7</ele>
        <time>2022-02-20T14:49:37Z</time>
      </trkpt>
      <trkpt lat="43.57942" lon="3.747">
        <ele>54.7</ele>
        <time>2022-02-20T14:49:47Z</time>
      </trkpt>
      <trkpt lat="43.57902" lon="3.74726">
        <ele>52.5</ele>
        <time>2022-02-20T14:49:57Z</time>
      </trkpt>
      <trkpt lat="43.57868" lon="3.74779">
        <ele>50.2</ele>
        <time>2022-02-20T14:50:07Z</time>
      </trkpt>
      <trkpt lat="43.57843" lon="3.74826">
        <ele>49.1</ele>
        <time>2022-02-20T14:50:17Z</time>
      </trkpt>
      <trkpt lat="43.57817" lon="3.74874">
        <ele>48.4</ele>
        <time>2022-02-20T14:50:27Z</time>
      </trkpt>
      <trkpt lat="43.57796" lon="3.74922">
        <ele>47.7</ele>
        <time>2022-02-20T14:50:37Z</time>
      </trkpt>
      <trkpt lat="43.5783" lon="3.74949">
        <ele>48</ele>
        <time>2022-02-20T14:50:47Z</time>
      </trkpt>
      <trkpt lat="43.57857" lon="3.74985">
        <ele>48.9</ele>
        <time>2022-02-20T14:50:57Z</time>
      </trkpt>
      <trkpt lat="43.57845" lon="3.75025">
        <ele>48</ele>
        <time>2022-02-20T14:51:07Z</time>
      </trkpt>
      <trkpt lat="43.5782" lon="3.75057">
        <ele>47.5</ele>
        <time>2022-02-20T14:51:17Z</time>
      </trkpt>
      <trkpt lat="43.57805" lon="3.75113">
        <ele>46.1</ele>
        <time>2022-02-20T14:51:27Z</time>
      </trkpt>
      <trkpt lat="43.57781" lon="3.75161">
        <ele>45.4</ele>
        <time>2022-02-20T14:51:37Z</time>
      </trkpt>
      <trkpt lat="43.57762" lon="3.75216">
        <ele>44.5</ele>
        <time>2022-02-20T14:51:47Z</time>
      </trkpt>
      <trkpt lat="43.57739" lon="3.75257">
        <ele>43.7</ele>
        <time>2022-02-20T14:51:57Z</time>
      </trkpt>
      <trkpt lat="43.57734" lon="3.75282">
        <ele>43.9</ele>
        <time>2022-02-20T14:52:07Z</time>
      </trkpt>
      <trkpt lat="43.5775" lon="3.75314">
        <ele>44</ele>
        <time>2022-02-20T14:52:17Z</time>
      </trkpt>
      <trkpt lat="43.57768" lon="3.7534">
        <ele>44.4</ele>
        <time>2022-02-20T14:52:27Z</time>
      </trkpt>
      <trkpt lat="43.57783" lon="3.75361">
        <ele>44</ele>
        <time>2022-02-20T14:52:37Z</time>
      </trkpt>
      <trkpt lat="43.57803" lon="3.75382">
        <ele>44</ele>
        <time>2022-02-20T14:52:47Z</time>
      </trkpt>
      <trkpt lat="43.57826" lon="3.75409">
        <ele>45.1</ele>
        <time>2022-02-20T14:52:57Z</time>
      </trkpt>
      <trkpt lat="43.5785" lon="3.75432">
        <ele>45.8</ele>
        <time>2022-02-20T14:53:07Z</time>
      </trkpt>
      <trkpt lat="43.57874" lon="3.75454">
        <ele>46.3</ele>
        <time>2022-02-20T14:53:17Z</time>
      </trkpt>
      <trkpt lat="43.57895" lon="3.75475">
        <ele>46.2</ele>
        <time>2022-02-20T14:53:27Z</time>
      </trkpt>
      <trkpt lat="43.57916" lon="3.75497">
        <ele>47</ele>
        <time>2022-02-20T14:53:37Z</time>
      </trkpt>
      <trkpt lat="43.57943" lon="3.75523">
        <ele>47.2</ele>
        <time>2022-02-20T14:53:47Z</time>
      </trkpt>
      <trkpt lat="43.57971" lon="3.75548">
        <ele>47.3</ele>
        <time>2022-02-20T14:53:57Z</time>
      </trkpt>
      <trkpt lat="43.57999" lon="3.75567">
        <ele>47</ele>
        <time>2022-02-20T14:54:07Z</time>
      </trkpt>
      <trkpt lat="43.58032" lon="3.75588">
        <ele>46.1</ele>
        <time>2022-02-20T14:54:17Z</time>
      </trkpt>
      <trkpt lat="43.58065" lon="3.75611">
        <ele>46.3</ele>
        <time>2022-02-20T14:54:27Z</time>
      </trkpt>
      <trkpt lat="43.58099" lon="3.75634">
        <ele>46.6</ele>
        <time>2022-02-20T14:54:37Z</time>
      </trkpt>
      <trkpt lat="43.58133" lon="3.75657">
        <ele>46.9</ele>
        <time>2022-02-20T14:54:47Z</time>
      </trkpt>
      <trkpt lat="43.58167" lon="3.7568">
        <ele>47.5</ele>
        <time>2022-02-20T14:54:57Z</time>
      </trkpt>
      <trkpt lat="43.58203" lon="3.75704">
        <ele>48.2</ele>
        <time>2022-02-20T14:55:07Z</time>
      </trkpt>
      <trkpt lat="43.58204" lon="3.75737">
        <ele>47.8</ele>
        <time>2022-02-20T14:55:17Z</time>
      </trkpt>
      <trkpt lat="43.58165" lon="3.7577">
        <ele>47.7</ele>
        <time>2022-02-20T14:55:27Z</time>
      </trkpt>
      <trkpt lat="43.58128" lon="3.75805">
        <ele>47.2</ele>
        <time>2022-02-20T14:55:37Z</time>
      </trkpt>
      <trkpt lat="43.58095" lon="3.7584">
        <ele>46.2</ele>
        <time>2022-02-20T14:55:47Z</time>
      </trkpt>
      <trkpt lat="43.58064" lon="3.75872">
        <ele>45.7</ele>
        <time>2022-02-20T14:55:57Z</time>
      </trkpt>
      <trkpt lat="43.5805" lon="3.75905">
        <ele>45.8</ele>
        <time>2022-02-20T14:56:07Z</time>
      </trkpt>
      <trkpt lat="43.5808" lon="3.75927">
        <ele>47</ele>
        <time>2022-02-20T14:56:17Z</time>
      </trkpt>
      <trkpt lat="43.5811" lon="3.75952">
        <ele>46.7</ele>
        <time>2022-02-20T14:56:27Z</time>
      </trkpt>
      <trkpt lat="43.58142" lon="3.7598">
        <ele>45.8</ele>
        <time>2022-02-20T14:56:37Z</time>
      </trkpt>
      <trkpt lat="43.58173" lon="3.76008">
        <ele>46</ele>
        <time>2022-02-20T14:56:47Z</time>
      </trkpt>
      <trkpt lat="43.58202" lon="3.76034">
        <ele>46.8</ele>
        <time>2022-02-20T14:56:57Z</time>
      </trkpt>
      <trkpt lat="43.58219" lon="3.7606">
        <ele>47</ele>
        <time>2022-02-20T14:57:07Z</time>
      </trkpt>
      <trkpt lat="43.5821" lon="3.761">
        <ele>48.3</ele>
        <time>2022-02-20T14:57:17Z</time>
      </trkpt>
      <trkpt lat="43.58202" lon="3.76142">
        <ele>48.5</ele>
        <time>2022-02-20T14:57:27Z</time>
      </trkpt>
      <trkpt lat="43.58212" lon="3.76186">
        <ele>47.9</ele>
        <time>2022-02-20T14:57:37Z</time>
      </trkpt>
      <trkpt lat="43.58218" lon="3.7621">
        <ele>47.3</ele>
        <time>2022-02-20T14:57:47Z</time>
      </trkpt>
      <trkpt lat="43.58227" lon="3.76228">
        <ele>46.4</ele>
        <time>2022-02-20T14:58:07Z</time>
      </trkpt>
      <trkpt lat="43.58232" lon="3.76245">
        <ele>45</ele>
        <time>2022-02-20T14:58:27Z</time>
      </trkpt>
      <trkpt lat="43.58248" lon="3.76275">
        <ele>42.3</ele>
        <time>2022-02-20T14:58:37Z</time>
      </trkpt>
      <trkpt lat="43.5827" lon="3.76313">
        <ele>41.2</ele>
        <time>2022-02-20T14:58:47Z</time>
      </trkpt>
      <trkpt lat="43.58281" lon="3.76346">
        <ele>41.1</ele>
        <time>2022-02-20T14:58:57Z</time>
      </trkpt>
      <trkpt lat="43.58298" lon="3.76377">
        <ele>41.3</ele>
        <time>2022-02-20T14:59:07Z</time>
      </trkpt>
      <trkpt lat="43.58318" lon="3.76419">
        <ele>41.4</ele>
        <time>2022-02-20T14:59:17Z</time>
      </trkpt>
      <trkpt lat="43.58335" lon="3.76455">
        <ele>41</ele>
        <time>2022-02-20T14:59:27Z</time>
      </trkpt>
      <trkpt lat="43.58344" lon="3.76475">
        <ele>41.1</ele>
        <time>2022-02-20T14:59:37Z</time>
      </trkpt>
      <trkpt lat="43.58352" lon="3.76504">
        <ele>41.3</ele>
        <time>2022-02-20T15:06:57Z</time>
      </trkpt>
      <trkpt lat="43.58376" lon="3.7655">
        <ele>41</ele>
        <time>2022-02-20T15:07:17Z</time>
      </trkpt>
      <trkpt lat="43.58393" lon="3.76595">
        <ele>41.1</ele>
        <time>2022-02-20T15:07:27Z</time>
      </trkpt>
      <trkpt lat="43.58415" lon="3.76645">
        <ele>42</ele>
        <time>2022-02-20T15:07:37Z</time>
      </trkpt>
      <trkpt lat="43.58432" lon="3.76699">
        <ele>42.4</ele>
        <time>2022-02-20T15:07:47Z</time>
      </trkpt>
      <trkpt lat="43.58449" lon="3.76753">
        <ele>42.2</ele>
        <time>2022-02-20T15:07:57Z</time>
      </trkpt>
      <trkpt lat="43.58469" lon="3.76809">
        <ele>42.8</ele>
        <time>2022-02-20T15:08:07Z</time>
      </trkpt>
      <trkpt lat="43.58487" lon="3.76862">
        <ele>42.5</ele>
        <time>2022-02-20T15:08:17Z</time>
      </trkpt>
      <trkpt lat="43.58506" lon="3.76916">
        <ele>43</ele>
        <time>2022-02-20T15:08:27Z</time>
      </trkpt>
      <trkpt lat="43.58526" lon="3.76975">
        <ele>42.8</ele>
        <time>2022-02-20T15:08:37Z</time>
      </trkpt>
      <trkpt lat="43.58543" lon="3.77033">
        <ele>42.4</ele>
        <time>2022-02-20T15:08:47Z</time>
      </trkpt>
      <trkpt lat="43.58565" lon="3.77097">
        <ele>42.3</ele>
        <time>2022-02-20T15:08:57Z</time>
      </trkpt>
      <trkpt lat="43.58585" lon="3.77163">
        <ele>42.1</ele>
        <time>2022-02-20T15:09:07Z</time>
      </trkpt>
      <trkpt lat="43.58598" lon="3.77232">
        <ele>42.5</ele>
        <time>2022-02-20T15:09:17Z</time>
      </trkpt>
      <trkpt lat="43.586" lon="3.77299">
        <ele>41.7</ele>
        <time>2022-02-20T15:09:27Z</time>
      </trkpt>
      <trkpt lat="43.58601" lon="3.77361">
        <ele>41.6</ele>
        <time>2022-02-20T15:09:37Z</time>
      </trkpt>
      <trkpt lat="43.58622" lon="3.77414">
        <ele>42</ele>
        <time>2022-02-20T15:09:47Z</time>
      </trkpt>
      <trkpt lat="43.58661" lon="3.77447">
        <ele>42.8</ele>
        <time>2022-02-20T15:09:57Z</time>
      </trkpt>
      <trkpt lat="43.58692" lon="3.77482">
        <ele>43.9</ele>
        <time>2022-02-20T15:10:07Z</time>
      </trkpt>
      <trkpt lat="43.58722" lon="3.77477">
        <ele>44</ele>
        <time>2022-02-20T15:10:17Z</time>
      </trkpt>
      <trkpt lat="43.58751" lon="3.77475">
        <ele>45</ele>
        <time>2022-02-20T15:10:27Z</time>
      </trkpt>
      <trkpt lat="43.58777" lon="3.77512">
        <ele>46</ele>
        <time>2022-02-20T15:10:37Z</time>
      </trkpt>
      <trkpt lat="43.58801" lon="3.77549">
        <ele>46.8</ele>
        <time>2022-02-20T15:10:47Z</time>
      </trkpt>
      <trkpt lat="43.58824" lon="3.77585">
        <ele>48.3</ele>
        <time>2022-02-20T15:10:57Z</time>
      </trkpt>
      <trkpt lat="43.58849" lon="3.77618">
        <ele>49</ele>
        <time>2022-02-20T15:11:07Z</time>
      </trkpt>
      <trkpt lat="43.58875" lon="3.77649">
        <ele>49.5</ele>
        <time>2022-02-20T15:11:17Z</time>
      </trkpt>
      <trkpt lat="43.58895" lon="3.77683">
        <ele>49.4</ele>
        <time>2022-02-20T15:11:27Z</time>
      </trkpt>
      <trkpt lat="43.58913" lon="3.77719">
        <ele>48.2</ele>
        <time>2022-02-20T15:11:37Z</time>
      </trkpt>
      <trkpt lat="43.58935" lon="3.77761">
        <ele>47.6</ele>
        <time>2022-02-20T15:11:47Z</time>
      </trkpt>
      <trkpt lat="43.58958" lon="3.77814">
        <ele>47</ele>
        <time>2022-02-20T15:11:57Z</time>
      </trkpt>
      <trkpt lat="43.59002" lon="3.77833">
        <ele>47.1</ele>
        <time>2022-02-20T15:12:07Z</time>
      </trkpt>
      <trkpt lat="43.59036" lon="3.77866">
        <ele>48.4</ele>
        <time>2022-02-20T15:12:17Z</time>
      </trkpt>
      <trkpt lat="43.59064" lon="3.779">
        <ele>49.4</ele>
        <time>2022-02-20T15:12:27Z</time>
      </trkpt>
      <trkpt lat="43.59087" lon="3.77934">
        <ele>50.6</ele>
        <time>2022-02-20T15:12:37Z</time>
      </trkpt>
      <trkpt lat="43.59113" lon="3.77968">
        <ele>51.8</ele>
        <time>2022-02-20T15:12:47Z</time>
      </trkpt>
      <trkpt lat="43.59143" lon="3.78011">
        <ele>50.9</ele>
        <time>2022-02-20T15:12:57Z</time>
      </trkpt>
      <trkpt lat="43.5917" lon="3.78054">
        <ele>50</ele>
        <time>2022-02-20T15:13:07Z</time>
      </trkpt>
      <trkpt lat="43.59203" lon="3.78094">
        <ele>49.7</ele>
        <time>2022-02-20T15:13:17Z</time>
      </trkpt>
      <trkpt lat="43.59239" lon="3.78127">
        <ele>48.7</ele>
        <time>2022-02-20T15:13:27Z</time>
      </trkpt>
      <trkpt lat="43.59276" lon="3.78157">
        <ele>47.4</ele>
        <time>2022-02-20T15:13:37Z</time>
      </trkpt>
      <trkpt lat="43.59316" lon="3.78179">
        <ele>47.6</ele>
        <time>2022-02-20T15:13:47Z</time>
      </trkpt>
      <trkpt lat="43.59356" lon="3.78218">
        <ele>47</ele>
        <time>2022-02-20T15:13:57Z</time>
      </trkpt>
      <trkpt lat="43.59396" lon="3.78257">
        <ele>46.2</ele>
        <time>2022-02-20T15:14:07Z</time>
      </trkpt>
      <trkpt lat="43.59439" lon="3.78287">
        <ele>47.3</ele>
        <time>2022-02-20T15:14:17Z</time>
      </trkpt>
      <trkpt lat="43.59481" lon="3.78313">
        <ele>47</ele>
        <time>2022-02-20T15:14:27Z</time>
      </trkpt>
      <trkpt lat="43.59523" lon="3.78338">
        <ele>46.7</ele>
        <time>2022-02-20T15:14:37Z</time>
      </trkpt>
      <trkpt lat="43.59557" lon="3.78358">
        <ele>47.1</ele>
        <time>2022-02-20T15:14:47Z</time>
      </trkpt>
      <trkpt lat="43.59581" lon="3.78322">
        <ele>47.5</ele>
        <time>2022-02-20T15:14:57Z</time>
      </trkpt>
      <trkpt lat="43.59605" lon="3.78284">
        <ele>47.8</ele>
        <time>2022-02-20T15:15:07Z</time>
      </trkpt>
      <trkpt lat="43.59629" lon="3.78247">
        <ele>48</ele>
        <time>2022-02-20T15:15:17Z</time>
      </trkpt>
      <trkpt lat="43.59651" lon="3.78212">
        <ele>48.6</ele>
        <time>2022-02-20T15:15:27Z</time>
      </trkpt>
      <trkpt lat="43.59677" lon="3.78197">
        <ele>49</ele>
        <time>2022-02-20T15:15:37Z</time>
      </trkpt>
      <trkpt lat="43.59705" lon="3.78239">
        <ele>48.6</ele>
        <time>2022-02-20T15:15:47Z</time>
      </trkpt>
      <trkpt lat="43.59737" lon="3.78258">
        <ele>48.4</ele>
        <time>2022-02-20T15:15:57Z</time>
      </trkpt>
      <trkpt lat="43.59766" lon="3.78244">
        <ele>49.3</ele>
        <time>2022-02-20T15:16:07Z</time>
      </trkpt>
      <trkpt lat="43.59811" lon="3.78249">
        <ele>49</ele>
        <time>2022-02-20T15:16:17Z</time>
      </trkpt>
      <trkpt lat="43.59864" lon="3.78248">
        <ele>48.3</ele>
        <time>2022-02-20T15:16:27Z</time>
      </trkpt>
      <trkpt lat="43.59918" lon="3.78253">
        <ele>47.8</ele>
        <time>2022-02-20T15:16:37Z</time>
      </trkpt>
      <trkpt lat="43.59967" lon="3.7827">
        <ele>45.2</ele>
        <time>2022-02-20T15:16:47Z</time>
      </trkpt>
      <trkpt lat="43.60012" lon="3.78291">
        <ele>48.7</ele>
        <time>2022-02-20T15:16:57Z</time>
      </trkpt>
      <trkpt lat="43.60051" lon="3.7831">
        <ele>51.2</ele>
        <time>2022-02-20T15:17:07Z</time>
      </trkpt>
      <trkpt lat="43.60088" lon="3.78326">
        <ele>53.1</ele>
        <time>2022-02-20T15:17:17Z</time>
      </trkpt>
      <trkpt lat="43.60126" lon="3.78337">
        <ele>54.5</ele>
        <time>2022-02-20T15:17:27Z</time>
      </trkpt>
      <trkpt lat="43.60164" lon="3.78343">
        <ele>55.3</ele>
        <time>2022-02-20T15:17:37Z</time>
      </trkpt>
      <trkpt lat="43.60201" lon="3.78346">
        <ele>56.7</ele>
        <time>2022-02-20T15:17:47Z</time>
      </trkpt>
      <trkpt lat="43.60238" lon="3.78347">
        <ele>58.1</ele>
        <time>2022-02-20T15:17:57Z</time>
      </trkpt>
      <trkpt lat="43.60273" lon="3.78348">
        <ele>59.4</ele>
        <time>2022-02-20T15:18:07Z</time>
      </trkpt>
      <trkpt lat="43.60307" lon="3.78349">
        <ele>60.6</ele>
        <time>2022-02-20T15:18:17Z</time>
      </trkpt>
      <trkpt lat="43.60342" lon="3.7835">
        <ele>60.9</ele>
        <time>2022-02-20T15:18:27Z</time>
      </trkpt>
      <trkpt lat="43.60377" lon="3.7835">
        <ele>61.8</ele>
        <time>2022-02-20T15:18:37Z</time>
      </trkpt>
      <trkpt lat="43.6041" lon="3.78351">
        <ele>62.5</ele>
        <time>2022-02-20T15:18:47Z</time>
      </trkpt>
      <trkpt lat="43.60445" lon="3.78353">
        <ele>63.7</ele>
        <time>2022-02-20T15:18:57Z</time>
      </trkpt>
      <trkpt lat="43.60484" lon="3.78354">
        <ele>63.4</ele>
        <time>2022-02-20T15:19:07Z</time>
      </trkpt>
      <trkpt lat="43.60526" lon="3.78357">
        <ele>62.9</ele>
        <time>2022-02-20T15:19:17Z</time>
      </trkpt>
      <trkpt lat="43.60571" lon="3.78365">
        <ele>62.1</ele>
        <time>2022-02-20T15:19:27Z</time>
      </trkpt>
      <trkpt lat="43.60614" lon="3.78376">
        <ele>62</ele>
        <time>2022-02-20T15:19:37Z</time>
      </trkpt>
      <trkpt lat="43.60653" lon="3.78392">
        <ele>62.1</ele>
        <time>2022-02-20T15:19:47Z</time>
      </trkpt>
      <trkpt lat="43.60676" lon="3.78411">
        <ele>62</ele>
        <time>2022-02-20T15:19:57Z</time>
      </trkpt>
      <trkpt lat="43.607" lon="3.7845">
        <ele>63</ele>
        <time>2022-02-20T15:20:07Z</time>
      </trkpt>
      <trkpt lat="43.60724" lon="3.78499">
        <ele>63.1</ele>
        <time>2022-02-20T15:20:17Z</time>
      </trkpt>
      <trkpt lat="43.60747" lon="3.78545">
        <ele>64</ele>
        <time>2022-02-20T15:20:27Z</time>
      </trkpt>
      <trkpt lat="43.60768" lon="3.78592">
        <ele>64.8</ele>
        <time>2022-02-20T15:20:37Z</time>
      </trkpt>
      <trkpt lat="43.60787" lon="3.78639">
        <ele>65.3</ele>
        <time>2022-02-20T15:20:47Z</time>
      </trkpt>
      <trkpt lat="43.60806" lon="3.78678">
        <ele>66.6</ele>
        <time>2022-02-20T15:20:57Z</time>
      </trkpt>
      <trkpt lat="43.60824" lon="3.78716">
        <ele>67.2</ele>
        <time>2022-02-20T15:21:07Z</time>
      </trkpt>
      <trkpt lat="43.60841" lon="3.7875">
        <ele>69</ele>
        <time>2022-02-20T15:21:17Z</time>
      </trkpt>
      <trkpt lat="43.60853" lon="3.78782">
        <ele>71.5</ele>
        <time>2022-02-20T15:21:27Z</time>
      </trkpt>
      <trkpt lat="43.60864" lon="3.7881">
        <ele>74.5</ele>
        <time>2022-02-20T15:21:37Z</time>
      </trkpt>
      <trkpt lat="43.60872" lon="3.78837">
        <ele>76.5</ele>
        <time>2022-02-20T15:21:47Z</time>
      </trkpt>
      <trkpt lat="43.6088" lon="3.78869">
        <ele>78</ele>
        <time>2022-02-20T15:21:57Z</time>
      </trkpt>
      <trkpt lat="43.60882" lon="3.78903">
        <ele>78.9</ele>
        <time>2022-02-20T15:22:07Z</time>
      </trkpt>
      <trkpt lat="43.60876" lon="3.7894">
        <ele>79.5</ele>
        <time>2022-02-20T15:22:17Z</time>
      </trkpt>
      <trkpt lat="43.6087" lon="3.78975">
        <ele>80.3</ele>
        <time>2022-02-20T15:22:27Z</time>
      </trkpt>
      <trkpt lat="43.60864" lon="3.79011">
        <ele>79.7</ele>
        <time>2022-02-20T15:22:37Z</time>
      </trkpt>
      <trkpt lat="43.60851" lon="3.79079">
        <ele>77.3</ele>
        <time>2022-02-20T15:22:47Z</time>
      </trkpt>
      <trkpt lat="43.6084" lon="3.79182">
        <ele>73.7</ele>
        <time>2022-02-20T15:22:57Z</time>
      </trkpt>
      <trkpt lat="43.60835" lon="3.79316">
        <ele>67.1</ele>
        <time>2022-02-20T15:23:07Z</time>
      </trkpt>
      <trkpt lat="43.60847" lon="3.79465">
        <ele>62.3</ele>
        <time>2022-02-20T15:23:17Z</time>
      </trkpt>
      <trkpt lat="43.60873" lon="3.79614">
        <ele>56.9</ele>
        <time>2022-02-20T15:23:27Z</time>
      </trkpt>
      <trkpt lat="43.60905" lon="3.79761">
        <ele>52.4</ele>
        <time>2022-02-20T15:23:37Z</time>
      </trkpt>
      <trkpt lat="43.60938" lon="3.79896">
        <ele>49.5</ele>
        <time>2022-02-20T15:23:47Z</time>
      </trkpt>
      <trkpt lat="43.60962" lon="3.80017">
        <ele>46.5</ele>
        <time>2022-02-20T15:23:57Z</time>
      </trkpt>
      <trkpt lat="43.60981" lon="3.80112">
        <ele>47.6</ele>
        <time>2022-02-20T15:24:07Z</time>
      </trkpt>
      <trkpt lat="43.60998" lon="3.80196">
        <ele>48</ele>
        <time>2022-02-20T15:24:17Z</time>
      </trkpt>
      <trkpt lat="43.61014" lon="3.80275">
        <ele>49</ele>
        <time>2022-02-20T15:24:27Z</time>
      </trkpt>
      <trkpt lat="43.61033" lon="3.80336">
        <ele>46.7</ele>
        <time>2022-02-20T15:24:37Z</time>
      </trkpt>
      <trkpt lat="43.61053" lon="3.80395">
        <ele>50.5</ele>
        <time>2022-02-20T15:24:47Z</time>
      </trkpt>
      <trkpt lat="43.61077" lon="3.80453">
        <ele>50.3</ele>
        <time>2022-02-20T15:24:57Z</time>
      </trkpt>
      <trkpt lat="43.61095" lon="3.80503">
        <ele>49.8</ele>
        <time>2022-02-20T15:25:07Z</time>
      </trkpt>
      <trkpt lat="43.61121" lon="3.80548">
        <ele>49.6</ele>
        <time>2022-02-20T15:25:17Z</time>
      </trkpt>
      <trkpt lat="43.61146" lon="3.80589">
        <ele>50.2</ele>
        <time>2022-02-20T15:25:27Z</time>
      </trkpt>
      <trkpt lat="43.61173" lon="3.80642">
        <ele>49.2</ele>
        <time>2022-02-20T15:25:37Z</time>
      </trkpt>
      <trkpt lat="43.61201" lon="3.807">
        <ele>49.2</ele>
        <time>2022-02-20T15:25:47Z</time>
      </trkpt>
      <trkpt lat="43.61227" lon="3.80761">
        <ele>49.3</ele>
        <time>2022-02-20T15:25:57Z</time>
      </trkpt>
      <trkpt lat="43.61248" lon="3.80825">
        <ele>49.2</ele>
        <time>2022-02-20T15:26:07Z</time>
      </trkpt>
      <trkpt lat="43.61275" lon="3.80889">
        <ele>49</ele>
        <time>2022-02-20T15:26:17Z</time>
      </trkpt>
      <trkpt lat="43.61291" lon="3.80958">
        <ele>48.7</ele>
        <time>2022-02-20T15:26:27Z</time>
      </trkpt>
      <trkpt lat="43.61307" lon="3.81033">
        <ele>47</ele>
        <time>2022-02-20T15:26:37Z</time>
      </trkpt>
      <trkpt lat="43.61318" lon="3.81084">
        <ele>46.9</ele>
        <time>2022-02-20T15:26:47Z</time>
      </trkpt>
      <trkpt lat="43.61339" lon="3.81149">
        <ele>45.8</ele>
        <time>2022-02-20T15:26:57Z</time>
      </trkpt>
      <trkpt lat="43.61366" lon="3.81218">
        <ele>45.3</ele>
        <time>2022-02-20T15:27:07Z</time>
      </trkpt>
      <trkpt lat="43.61388" lon="3.8128">
        <ele>44.9</ele>
        <time>2022-02-20T15:27:17Z</time>
      </trkpt>
      <trkpt lat="43.61403" lon="3.81358">
        <ele>43.1</ele>
        <time>2022-02-20T15:27:27Z</time>
      </trkpt>
      <trkpt lat="43.61409" lon="3.81453">
        <ele>40.7</ele>
        <time>2022-02-20T15:27:37Z</time>
      </trkpt>
      <trkpt lat="43.61413" lon="3.81541">
        <ele>38.1</ele>
        <time>2022-02-20T15:27:47Z</time>
      </trkpt>
      <trkpt lat="43.61431" lon="3.81556">
        <ele>38</ele>
        <time>2022-02-20T15:27:57Z</time>
      </trkpt>
      <trkpt lat="43.61466" lon="3.81554">
        <ele>38.1</ele>
        <time>2022-02-20T15:28:07Z</time>
      </trkpt>
      <trkpt lat="43.61484" lon="3.81615">
        <ele>36.7</ele>
        <time>2022-02-20T15:28:17Z</time>
      </trkpt>
      <trkpt lat="43.615" lon="3.81673">
        <ele>36.9</ele>
        <time>2022-02-20T15:28:27Z</time>
      </trkpt>
      <trkpt lat="43.61517" lon="3.81726">
        <ele>32.2</ele>
        <time>2022-02-20T15:28:37Z</time>
      </trkpt>
      <trkpt lat="43.61533" lon="3.81787">
        <ele>37.3</ele>
        <time>2022-02-20T15:28:47Z</time>
      </trkpt>
      <trkpt lat="43.61549" lon="3.81851">
        <ele>36.7</ele>
        <time>2022-02-20T15:28:57Z</time>
      </trkpt>
      <trkpt lat="43.6155" lon="3.81915">
        <ele>37.4</ele>
        <time>2022-02-20T15:29:07Z</time>
      </trkpt>
      <trkpt lat="43.6154" lon="3.81975">
        <ele>38</ele>
        <time>2022-02-20T15:29:17Z</time>
      </trkpt>
      <trkpt lat="43.61531" lon="3.82028">
        <ele>40</ele>
        <time>2022-02-20T15:29:27Z</time>
      </trkpt>
      <trkpt lat="43.61527" lon="3.82079">
        <ele>41.9</ele>
        <time>2022-02-20T15:29:37Z</time>
      </trkpt>
      <trkpt lat="43.6152" lon="3.82123">
        <ele>43.3</ele>
        <time>2022-02-20T15:29:47Z</time>
      </trkpt>
      <trkpt lat="43.61516" lon="3.8218">
        <ele>43.5</ele>
        <time>2022-02-20T15:29:57Z</time>
      </trkpt>
      <trkpt lat="43.61513" lon="3.82233">
        <ele>44.9</ele>
        <time>2022-02-20T15:30:07Z</time>
      </trkpt>
      <trkpt lat="43.61508" lon="3.82284">
        <ele>46.4</ele>
        <time>2022-02-20T15:30:17Z</time>
      </trkpt>
      <trkpt lat="43.615" lon="3.82334">
        <ele>48</ele>
        <time>2022-02-20T15:30:27Z</time>
      </trkpt>
      <trkpt lat="43.61493" lon="3.82381">
        <ele>49.5</ele>
        <time>2022-02-20T15:30:37Z</time>
      </trkpt>
      <trkpt lat="43.61488" lon="3.82428">
        <ele>50.4</ele>
        <time>2022-02-20T15:30:47Z</time>
      </trkpt>
      <trkpt lat="43.61484" lon="3.82474">
        <ele>53.1</ele>
        <time>2022-02-20T15:30:57Z</time>
      </trkpt>
      <trkpt lat="43.61484" lon="3.82522">
        <ele>54</ele>
        <time>2022-02-20T15:31:07Z</time>
      </trkpt>
      <trkpt lat="43.61485" lon="3.82566">
        <ele>55.7</ele>
        <time>2022-02-20T15:31:17Z</time>
      </trkpt>
    </trkseg>
  </trk>
</gpx>